<?xml version="1.0" encoding="UTF-8" standalone="no" ?>
<gpx xmlns="http://www.topografix.com/GPX/1/1" xmlns:xsi="http://www.w3.org/2001/XMLSchema-instance" xsi:schemaLocation="http://www.topografix.com/GPX/1/1 http://www.topografix.com/GPX/1/1/gpx.xsd" version="1.1" creator="VisuGPX - https://www.visugpx.com">
  <metadata>
    <name>BOIS FRANÇAIS FULL</name>
    <desc><![CDATA[Tour complet des lacs du Bois Français]]></desc>
  </metadata>
  <trk>
    <name><![CDATA[BOIS FRANÇAIS FULL]]></name>
    <trkseg>
      <trkpt lat="45.23576" lon="5.81791">
        <ele>317.37</ele>
        <time>2022-09-23T13:23:12Z</time>
      </trkpt>
      <trkpt lat="45.23576" lon="5.81791">
        <ele>317.37</ele>
        <time>2022-09-23T13:23:13Z</time>
      </trkpt>
      <trkpt lat="45.23576" lon="5.81791">
        <ele>317.37</ele>
        <time>2022-09-23T13:23:14Z</time>
      </trkpt>
      <trkpt lat="45.2358" lon="5.81795">
        <ele>317.85</ele>
        <time>2022-09-23T13:23:35Z</time>
      </trkpt>
      <trkpt lat="45.2358" lon="5.81798">
        <ele>317.85</ele>
        <time>2022-09-23T13:24:09Z</time>
      </trkpt>
      <trkpt lat="45.23579" lon="5.81797">
        <ele>311.12</ele>
        <time>2022-09-23T13:24:17Z</time>
      </trkpt>
      <trkpt lat="45.2358" lon="5.81795">
        <ele>311.12</ele>
        <time>2022-09-23T13:24:39Z</time>
      </trkpt>
      <trkpt lat="45.23593" lon="5.81823">
        <ele>310.16</ele>
        <time>2022-09-23T13:24:59Z</time>
      </trkpt>
      <trkpt lat="45.23602" lon="5.81847">
        <ele>309.2</ele>
        <time>2022-09-23T13:25:15Z</time>
      </trkpt>
      <trkpt lat="45.23608" lon="5.81865">
        <ele>309.2</ele>
        <time>2022-09-23T13:25:29Z</time>
      </trkpt>
      <trkpt lat="45.23612" lon="5.81868">
        <ele>309.2</ele>
        <time>2022-09-23T13:25:33Z</time>
      </trkpt>
      <trkpt lat="45.23633" lon="5.81877">
        <ele>310.16</ele>
        <time>2022-09-23T13:25:51Z</time>
      </trkpt>
      <trkpt lat="45.2365" lon="5.81884">
        <ele>310.64</ele>
        <time>2022-09-23T13:26:05Z</time>
      </trkpt>
      <trkpt lat="45.23667" lon="5.81894">
        <ele>310.64</ele>
        <time>2022-09-23T13:26:18Z</time>
      </trkpt>
      <trkpt lat="45.2368" lon="5.81901">
        <ele>311.6</ele>
        <time>2022-09-23T13:26:31Z</time>
      </trkpt>
      <trkpt lat="45.23698" lon="5.81903">
        <ele>311.6</ele>
        <time>2022-09-23T13:26:44Z</time>
      </trkpt>
      <trkpt lat="45.23709" lon="5.81903">
        <ele>312.09</ele>
        <time>2022-09-23T13:26:53Z</time>
      </trkpt>
      <trkpt lat="45.23724" lon="5.81895">
        <ele>313.05</ele>
        <time>2022-09-23T13:27:05Z</time>
      </trkpt>
      <trkpt lat="45.23726" lon="5.81898">
        <ele>313.05</ele>
        <time>2022-09-23T13:27:08Z</time>
      </trkpt>
      <trkpt lat="45.23739" lon="5.81924">
        <ele>313.05</ele>
        <time>2022-09-23T13:27:23Z</time>
      </trkpt>
      <trkpt lat="45.23752" lon="5.81942">
        <ele>313.05</ele>
        <time>2022-09-23T13:27:37Z</time>
      </trkpt>
      <trkpt lat="45.23765" lon="5.81963">
        <ele>312.57</ele>
        <time>2022-09-23T13:27:51Z</time>
      </trkpt>
      <trkpt lat="45.23781" lon="5.81983">
        <ele>313.05</ele>
        <time>2022-09-23T13:28:06Z</time>
      </trkpt>
      <trkpt lat="45.2379" lon="5.81997">
        <ele>312.57</ele>
        <time>2022-09-23T13:28:17Z</time>
      </trkpt>
      <trkpt lat="45.23786" lon="5.82006">
        <ele>312.57</ele>
        <time>2022-09-23T13:28:22Z</time>
      </trkpt>
      <trkpt lat="45.23785" lon="5.82007">
        <ele>311.6</ele>
        <time>2022-09-23T13:28:23Z</time>
      </trkpt>
      <trkpt lat="45.23772" lon="5.82027">
        <ele>310.16</ele>
        <time>2022-09-23T13:28:39Z</time>
      </trkpt>
      <trkpt lat="45.2376" lon="5.82051">
        <ele>308.72</ele>
        <time>2022-09-23T13:28:53Z</time>
      </trkpt>
      <trkpt lat="45.23745" lon="5.82068">
        <ele>308.24</ele>
        <time>2022-09-23T13:29:07Z</time>
      </trkpt>
      <trkpt lat="45.23736" lon="5.8209">
        <ele>305.84</ele>
        <time>2022-09-23T13:29:22Z</time>
      </trkpt>
      <trkpt lat="45.23732" lon="5.82094">
        <ele>305.36</ele>
        <time>2022-09-23T13:29:26Z</time>
      </trkpt>
      <trkpt lat="45.23723" lon="5.82103">
        <ele>303.43</ele>
        <time>2022-09-23T13:29:36Z</time>
      </trkpt>
      <trkpt lat="45.23724" lon="5.8213">
        <ele>301.51</ele>
        <time>2022-09-23T13:29:49Z</time>
      </trkpt>
      <trkpt lat="45.23721" lon="5.82152">
        <ele>300.55</ele>
        <time>2022-09-23T13:30:04Z</time>
      </trkpt>
      <trkpt lat="45.23714" lon="5.82159">
        <ele>299.59</ele>
        <time>2022-09-23T13:30:21Z</time>
      </trkpt>
      <trkpt lat="45.23703" lon="5.82174">
        <ele>298.15</ele>
        <time>2022-09-23T13:30:35Z</time>
      </trkpt>
      <trkpt lat="45.23687" lon="5.822">
        <ele>295.74</ele>
        <time>2022-09-23T13:30:53Z</time>
      </trkpt>
      <trkpt lat="45.2368" lon="5.82227">
        <ele>294.3</ele>
        <time>2022-09-23T13:31:07Z</time>
      </trkpt>
      <trkpt lat="45.2368" lon="5.82232">
        <ele>293.82</ele>
        <time>2022-09-23T13:31:11Z</time>
      </trkpt>
      <trkpt lat="45.23673" lon="5.82267">
        <ele>291.42</ele>
        <time>2022-09-23T13:31:28Z</time>
      </trkpt>
      <trkpt lat="45.23658" lon="5.82289">
        <ele>289.01</ele>
        <time>2022-09-23T13:31:47Z</time>
      </trkpt>
      <trkpt lat="45.23638" lon="5.82311">
        <ele>287.09</ele>
        <time>2022-09-23T13:32:03Z</time>
      </trkpt>
      <trkpt lat="45.23624" lon="5.82325">
        <ele>285.65</ele>
        <time>2022-09-23T13:32:20Z</time>
      </trkpt>
      <trkpt lat="45.23619" lon="5.82327">
        <ele>285.17</ele>
        <time>2022-09-23T13:32:24Z</time>
      </trkpt>
      <trkpt lat="45.23596" lon="5.82322">
        <ele>283.25</ele>
        <time>2022-09-23T13:32:39Z</time>
      </trkpt>
      <trkpt lat="45.23573" lon="5.82302">
        <ele>281.8</ele>
        <time>2022-09-23T13:32:57Z</time>
      </trkpt>
      <trkpt lat="45.23553" lon="5.82284">
        <ele>279.88</ele>
        <time>2022-09-23T13:33:14Z</time>
      </trkpt>
      <trkpt lat="45.23534" lon="5.82276">
        <ele>278.44</ele>
        <time>2022-09-23T13:33:28Z</time>
      </trkpt>
      <trkpt lat="45.23511" lon="5.82266">
        <ele>277</ele>
        <time>2022-09-23T13:33:44Z</time>
      </trkpt>
      <trkpt lat="45.2349" lon="5.82263">
        <ele>275.56</ele>
        <time>2022-09-23T13:34:00Z</time>
      </trkpt>
      <trkpt lat="45.23475" lon="5.82262">
        <ele>275.07</ele>
        <time>2022-09-23T13:34:11Z</time>
      </trkpt>
      <trkpt lat="45.23445" lon="5.82272">
        <ele>272.67</ele>
        <time>2022-09-23T13:34:34Z</time>
      </trkpt>
      <trkpt lat="45.23416" lon="5.82278">
        <ele>271.71</ele>
        <time>2022-09-23T13:34:50Z</time>
      </trkpt>
      <trkpt lat="45.23399" lon="5.82279">
        <ele>270.75</ele>
        <time>2022-09-23T13:35:03Z</time>
      </trkpt>
      <trkpt lat="45.23382" lon="5.82277">
        <ele>269.79</ele>
        <time>2022-09-23T13:35:15Z</time>
      </trkpt>
      <trkpt lat="45.23362" lon="5.82273">
        <ele>267.86</ele>
        <time>2022-09-23T13:35:29Z</time>
      </trkpt>
      <trkpt lat="45.23359" lon="5.82272">
        <ele>267.38</ele>
        <time>2022-09-23T13:35:32Z</time>
      </trkpt>
      <trkpt lat="45.23348" lon="5.82275">
        <ele>266.42</ele>
        <time>2022-09-23T13:35:39Z</time>
      </trkpt>
      <trkpt lat="45.23347" lon="5.82277">
        <ele>266.42</ele>
        <time>2022-09-23T13:35:40Z</time>
      </trkpt>
      <trkpt lat="45.23346" lon="5.8228">
        <ele>265.94</ele>
        <time>2022-09-23T13:35:41Z</time>
      </trkpt>
      <trkpt lat="45.23346" lon="5.82282">
        <ele>265.94</ele>
        <time>2022-09-23T13:35:42Z</time>
      </trkpt>
      <trkpt lat="45.23353" lon="5.82305">
        <ele>265.94</ele>
        <time>2022-09-23T13:35:55Z</time>
      </trkpt>
      <trkpt lat="45.23354" lon="5.82323">
        <ele>265.94</ele>
        <time>2022-09-23T13:36:05Z</time>
      </trkpt>
      <trkpt lat="45.23354" lon="5.82345">
        <ele>267.38</ele>
        <time>2022-09-23T13:36:16Z</time>
      </trkpt>
      <trkpt lat="45.23355" lon="5.82366">
        <ele>267.86</ele>
        <time>2022-09-23T13:36:28Z</time>
      </trkpt>
      <trkpt lat="45.23355" lon="5.82384">
        <ele>267.86</ele>
        <time>2022-09-23T13:36:37Z</time>
      </trkpt>
      <trkpt lat="45.23355" lon="5.82386">
        <ele>267.86</ele>
        <time>2022-09-23T13:36:38Z</time>
      </trkpt>
      <trkpt lat="45.23355" lon="5.82388">
        <ele>267.86</ele>
        <time>2022-09-23T13:36:39Z</time>
      </trkpt>
      <trkpt lat="45.23354" lon="5.824">
        <ele>267.38</ele>
        <time>2022-09-23T13:36:46Z</time>
      </trkpt>
      <trkpt lat="45.23353" lon="5.82401">
        <ele>267.38</ele>
        <time>2022-09-23T13:36:47Z</time>
      </trkpt>
      <trkpt lat="45.23351" lon="5.82403">
        <ele>267.38</ele>
        <time>2022-09-23T13:36:48Z</time>
      </trkpt>
      <trkpt lat="45.2335" lon="5.82404">
        <ele>267.38</ele>
        <time>2022-09-23T13:36:49Z</time>
      </trkpt>
      <trkpt lat="45.23349" lon="5.82405">
        <ele>267.38</ele>
        <time>2022-09-23T13:36:50Z</time>
      </trkpt>
      <trkpt lat="45.23348" lon="5.82407">
        <ele>267.38</ele>
        <time>2022-09-23T13:36:51Z</time>
      </trkpt>
      <trkpt lat="45.23334" lon="5.82421">
        <ele>267.38</ele>
        <time>2022-09-23T13:37:05Z</time>
      </trkpt>
      <trkpt lat="45.2332" lon="5.82446">
        <ele>265.94</ele>
        <time>2022-09-23T13:37:21Z</time>
      </trkpt>
      <trkpt lat="45.23308" lon="5.82473">
        <ele>264.5</ele>
        <time>2022-09-23T13:37:37Z</time>
      </trkpt>
      <trkpt lat="45.23289" lon="5.82503">
        <ele>263.06</ele>
        <time>2022-09-23T13:37:57Z</time>
      </trkpt>
      <trkpt lat="45.23277" lon="5.82524">
        <ele>262.1</ele>
        <time>2022-09-23T13:38:11Z</time>
      </trkpt>
      <trkpt lat="45.23264" lon="5.82549">
        <ele>261.14</ele>
        <time>2022-09-23T13:38:28Z</time>
      </trkpt>
      <trkpt lat="45.23247" lon="5.82571">
        <ele>260.17</ele>
        <time>2022-09-23T13:38:43Z</time>
      </trkpt>
      <trkpt lat="45.23231" lon="5.8258">
        <ele>259.21</ele>
        <time>2022-09-23T13:38:56Z</time>
      </trkpt>
      <trkpt lat="45.23228" lon="5.82581">
        <ele>258.73</ele>
        <time>2022-09-23T13:38:59Z</time>
      </trkpt>
      <trkpt lat="45.23227" lon="5.82581">
        <ele>258.73</ele>
        <time>2022-09-23T13:39:00Z</time>
      </trkpt>
      <trkpt lat="45.23225" lon="5.82581">
        <ele>258.73</ele>
        <time>2022-09-23T13:39:01Z</time>
      </trkpt>
      <trkpt lat="45.23223" lon="5.82581">
        <ele>258.73</ele>
        <time>2022-09-23T13:39:02Z</time>
      </trkpt>
      <trkpt lat="45.23221" lon="5.82581">
        <ele>258.25</ele>
        <time>2022-09-23T13:39:03Z</time>
      </trkpt>
      <trkpt lat="45.23219" lon="5.82581">
        <ele>258.25</ele>
        <time>2022-09-23T13:39:04Z</time>
      </trkpt>
      <trkpt lat="45.23201" lon="5.82581">
        <ele>257.29</ele>
        <time>2022-09-23T13:39:17Z</time>
      </trkpt>
      <trkpt lat="45.23181" lon="5.82582">
        <ele>255.85</ele>
        <time>2022-09-23T13:39:30Z</time>
      </trkpt>
      <trkpt lat="45.23164" lon="5.82596">
        <ele>254.41</ele>
        <time>2022-09-23T13:39:43Z</time>
      </trkpt>
      <trkpt lat="45.23148" lon="5.8261">
        <ele>252.96</ele>
        <time>2022-09-23T13:39:56Z</time>
      </trkpt>
      <trkpt lat="45.23134" lon="5.82624">
        <ele>252</ele>
        <time>2022-09-23T13:40:09Z</time>
      </trkpt>
      <trkpt lat="45.23133" lon="5.82625">
        <ele>252</ele>
        <time>2022-09-23T13:40:10Z</time>
      </trkpt>
      <trkpt lat="45.23132" lon="5.82626">
        <ele>251.04</ele>
        <time>2022-09-23T13:40:11Z</time>
      </trkpt>
      <trkpt lat="45.2313" lon="5.82627">
        <ele>251.04</ele>
        <time>2022-09-23T13:40:12Z</time>
      </trkpt>
      <trkpt lat="45.23129" lon="5.82629">
        <ele>251.04</ele>
        <time>2022-09-23T13:40:13Z</time>
      </trkpt>
      <trkpt lat="45.23128" lon="5.8263">
        <ele>251.04</ele>
        <time>2022-09-23T13:40:14Z</time>
      </trkpt>
      <trkpt lat="45.23117" lon="5.82648">
        <ele>250.08</ele>
        <time>2022-09-23T13:40:26Z</time>
      </trkpt>
      <trkpt lat="45.23111" lon="5.82661">
        <ele>249.6</ele>
        <time>2022-09-23T13:40:35Z</time>
      </trkpt>
      <trkpt lat="45.23108" lon="5.82667">
        <ele>249.6</ele>
        <time>2022-09-23T13:40:42Z</time>
      </trkpt>
      <trkpt lat="45.23096" lon="5.82685">
        <ele>248.64</ele>
        <time>2022-09-23T13:40:55Z</time>
      </trkpt>
      <trkpt lat="45.23091" lon="5.82697">
        <ele>248.64</ele>
        <time>2022-09-23T13:41:02Z</time>
      </trkpt>
      <trkpt lat="45.2309" lon="5.827">
        <ele>248.64</ele>
        <time>2022-09-23T13:41:03Z</time>
      </trkpt>
      <trkpt lat="45.23089" lon="5.82725">
        <ele>248.16</ele>
        <time>2022-09-23T13:41:17Z</time>
      </trkpt>
      <trkpt lat="45.23088" lon="5.82738">
        <ele>248.16</ele>
        <time>2022-09-23T13:41:25Z</time>
      </trkpt>
      <trkpt lat="45.23088" lon="5.8274">
        <ele>248.16</ele>
        <time>2022-09-23T13:41:26Z</time>
      </trkpt>
      <trkpt lat="45.23089" lon="5.82743">
        <ele>248.16</ele>
        <time>2022-09-23T13:41:27Z</time>
      </trkpt>
      <trkpt lat="45.23089" lon="5.82745">
        <ele>248.16</ele>
        <time>2022-09-23T13:41:28Z</time>
      </trkpt>
      <trkpt lat="45.23089" lon="5.82747">
        <ele>247.68</ele>
        <time>2022-09-23T13:41:29Z</time>
      </trkpt>
      <trkpt lat="45.23088" lon="5.82749">
        <ele>247.68</ele>
        <time>2022-09-23T13:41:30Z</time>
      </trkpt>
      <trkpt lat="45.23086" lon="5.82763">
        <ele>247.68</ele>
        <time>2022-09-23T13:41:42Z</time>
      </trkpt>
      <trkpt lat="45.23086" lon="5.82766">
        <ele>247.2</ele>
        <time>2022-09-23T13:42:08Z</time>
      </trkpt>
      <trkpt lat="45.23082" lon="5.82782">
        <ele>246.72</ele>
        <time>2022-09-23T13:42:20Z</time>
      </trkpt>
      <trkpt lat="45.23077" lon="5.82804">
        <ele>246.23</ele>
        <time>2022-09-23T13:42:32Z</time>
      </trkpt>
      <trkpt lat="45.2307" lon="5.82827">
        <ele>245.27</ele>
        <time>2022-09-23T13:42:44Z</time>
      </trkpt>
      <trkpt lat="45.23059" lon="5.8285">
        <ele>243.83</ele>
        <time>2022-09-23T13:42:57Z</time>
      </trkpt>
      <trkpt lat="45.23049" lon="5.82874">
        <ele>243.35</ele>
        <time>2022-09-23T13:43:10Z</time>
      </trkpt>
      <trkpt lat="45.23037" lon="5.82893">
        <ele>241.91</ele>
        <time>2022-09-23T13:43:24Z</time>
      </trkpt>
      <trkpt lat="45.23022" lon="5.82918">
        <ele>240.95</ele>
        <time>2022-09-23T13:43:39Z</time>
      </trkpt>
      <trkpt lat="45.2301" lon="5.82937">
        <ele>239.99</ele>
        <time>2022-09-23T13:43:53Z</time>
      </trkpt>
      <trkpt lat="45.22998" lon="5.82955">
        <ele>239.02</ele>
        <time>2022-09-23T13:44:06Z</time>
      </trkpt>
      <trkpt lat="45.22984" lon="5.82976">
        <ele>238.06</ele>
        <time>2022-09-23T13:44:19Z</time>
      </trkpt>
      <trkpt lat="45.22972" lon="5.82997">
        <ele>236.62</ele>
        <time>2022-09-23T13:44:32Z</time>
      </trkpt>
      <trkpt lat="45.22965" lon="5.83009">
        <ele>235.66</ele>
        <time>2022-09-23T13:44:43Z</time>
      </trkpt>
      <trkpt lat="45.22955" lon="5.83019">
        <ele>234.22</ele>
        <time>2022-09-23T13:44:53Z</time>
      </trkpt>
      <trkpt lat="45.22954" lon="5.8302">
        <ele>234.22</ele>
        <time>2022-09-23T13:44:54Z</time>
      </trkpt>
      <trkpt lat="45.22952" lon="5.83022">
        <ele>234.22</ele>
        <time>2022-09-23T13:44:55Z</time>
      </trkpt>
      <trkpt lat="45.22934" lon="5.83044">
        <ele>232.3</ele>
        <time>2022-09-23T13:45:10Z</time>
      </trkpt>
      <trkpt lat="45.22921" lon="5.83057">
        <ele>231.33</ele>
        <time>2022-09-23T13:45:22Z</time>
      </trkpt>
      <trkpt lat="45.22905" lon="5.83072">
        <ele>230.37</ele>
        <time>2022-09-23T13:45:36Z</time>
      </trkpt>
      <trkpt lat="45.22892" lon="5.83079">
        <ele>229.41</ele>
        <time>2022-09-23T13:45:52Z</time>
      </trkpt>
      <trkpt lat="45.22872" lon="5.83094">
        <ele>228.93</ele>
        <time>2022-09-23T13:46:06Z</time>
      </trkpt>
      <trkpt lat="45.22858" lon="5.83105">
        <ele>228.45</ele>
        <time>2022-09-23T13:46:18Z</time>
      </trkpt>
      <trkpt lat="45.22844" lon="5.83118">
        <ele>227.97</ele>
        <time>2022-09-23T13:46:30Z</time>
      </trkpt>
      <trkpt lat="45.22825" lon="5.83133">
        <ele>227.49</ele>
        <time>2022-09-23T13:46:45Z</time>
      </trkpt>
      <trkpt lat="45.22823" lon="5.83135">
        <ele>228.45</ele>
        <time>2022-09-23T13:46:47Z</time>
      </trkpt>
      <trkpt lat="45.22807" lon="5.83145">
        <ele>227.49</ele>
        <time>2022-09-23T13:47:00Z</time>
      </trkpt>
      <trkpt lat="45.22796" lon="5.83155">
        <ele>227.01</ele>
        <time>2022-09-23T13:47:11Z</time>
      </trkpt>
      <trkpt lat="45.22794" lon="5.83157">
        <ele>227.01</ele>
        <time>2022-09-23T13:47:12Z</time>
      </trkpt>
      <trkpt lat="45.22793" lon="5.83158">
        <ele>227.01</ele>
        <time>2022-09-23T13:47:13Z</time>
      </trkpt>
      <trkpt lat="45.22792" lon="5.83159">
        <ele>227.01</ele>
        <time>2022-09-23T13:47:14Z</time>
      </trkpt>
      <trkpt lat="45.22791" lon="5.8316">
        <ele>227.01</ele>
        <time>2022-09-23T13:47:15Z</time>
      </trkpt>
      <trkpt lat="45.2278" lon="5.83171">
        <ele>227.01</ele>
        <time>2022-09-23T13:47:27Z</time>
      </trkpt>
      <trkpt lat="45.22764" lon="5.83182">
        <ele>227.01</ele>
        <time>2022-09-23T13:47:39Z</time>
      </trkpt>
      <trkpt lat="45.2275" lon="5.83193">
        <ele>227.01</ele>
        <time>2022-09-23T13:47:52Z</time>
      </trkpt>
      <trkpt lat="45.22734" lon="5.83207">
        <ele>227.01</ele>
        <time>2022-09-23T13:48:05Z</time>
      </trkpt>
      <trkpt lat="45.22719" lon="5.83221">
        <ele>227.01</ele>
        <time>2022-09-23T13:48:17Z</time>
      </trkpt>
      <trkpt lat="45.22708" lon="5.83235">
        <ele>227.01</ele>
        <time>2022-09-23T13:48:29Z</time>
      </trkpt>
      <trkpt lat="45.22695" lon="5.8325">
        <ele>227.01</ele>
        <time>2022-09-23T13:48:41Z</time>
      </trkpt>
      <trkpt lat="45.22681" lon="5.83267">
        <ele>227.01</ele>
        <time>2022-09-23T13:48:53Z</time>
      </trkpt>
      <trkpt lat="45.22674" lon="5.8328">
        <ele>227.01</ele>
        <time>2022-09-23T13:49:03Z</time>
      </trkpt>
      <trkpt lat="45.22674" lon="5.83282">
        <ele>227.01</ele>
        <time>2022-09-23T13:49:04Z</time>
      </trkpt>
      <trkpt lat="45.22672" lon="5.83283">
        <ele>227.01</ele>
        <time>2022-09-23T13:49:05Z</time>
      </trkpt>
      <trkpt lat="45.22671" lon="5.83285">
        <ele>227.01</ele>
        <time>2022-09-23T13:49:06Z</time>
      </trkpt>
      <trkpt lat="45.22662" lon="5.833">
        <ele>226.53</ele>
        <time>2022-09-23T13:49:17Z</time>
      </trkpt>
      <trkpt lat="45.22651" lon="5.83315">
        <ele>226.53</ele>
        <time>2022-09-23T13:49:28Z</time>
      </trkpt>
      <trkpt lat="45.22639" lon="5.83334">
        <ele>226.53</ele>
        <time>2022-09-23T13:49:40Z</time>
      </trkpt>
      <trkpt lat="45.22629" lon="5.83347">
        <ele>226.53</ele>
        <time>2022-09-23T13:49:51Z</time>
      </trkpt>
      <trkpt lat="45.22618" lon="5.83365">
        <ele>226.53</ele>
        <time>2022-09-23T13:50:03Z</time>
      </trkpt>
      <trkpt lat="45.22607" lon="5.8338">
        <ele>226.53</ele>
        <time>2022-09-23T13:50:15Z</time>
      </trkpt>
      <trkpt lat="45.22594" lon="5.83395">
        <ele>226.53</ele>
        <time>2022-09-23T13:50:26Z</time>
      </trkpt>
      <trkpt lat="45.22584" lon="5.83409">
        <ele>226.53</ele>
        <time>2022-09-23T13:50:37Z</time>
      </trkpt>
      <trkpt lat="45.22584" lon="5.83412">
        <ele>226.53</ele>
        <time>2022-09-23T13:50:39Z</time>
      </trkpt>
      <trkpt lat="45.22584" lon="5.83414">
        <ele>226.53</ele>
        <time>2022-09-23T13:50:40Z</time>
      </trkpt>
      <trkpt lat="45.22595" lon="5.83434">
        <ele>226.53</ele>
        <time>2022-09-23T13:50:52Z</time>
      </trkpt>
      <trkpt lat="45.22605" lon="5.8345">
        <ele>226.53</ele>
        <time>2022-09-23T13:51:04Z</time>
      </trkpt>
      <trkpt lat="45.22617" lon="5.83466">
        <ele>226.53</ele>
        <time>2022-09-23T13:51:16Z</time>
      </trkpt>
      <trkpt lat="45.22628" lon="5.83481">
        <ele>226.53</ele>
        <time>2022-09-23T13:51:27Z</time>
      </trkpt>
      <trkpt lat="45.22638" lon="5.83495">
        <ele>226.53</ele>
        <time>2022-09-23T13:51:38Z</time>
      </trkpt>
      <trkpt lat="45.22649" lon="5.83509">
        <ele>226.53</ele>
        <time>2022-09-23T13:51:49Z</time>
      </trkpt>
      <trkpt lat="45.22659" lon="5.83525">
        <ele>226.53</ele>
        <time>2022-09-23T13:52:00Z</time>
      </trkpt>
      <trkpt lat="45.22672" lon="5.83542">
        <ele>226.53</ele>
        <time>2022-09-23T13:52:13Z</time>
      </trkpt>
      <trkpt lat="45.22682" lon="5.83557">
        <ele>226.53</ele>
        <time>2022-09-23T13:52:24Z</time>
      </trkpt>
      <trkpt lat="45.22692" lon="5.8357">
        <ele>226.53</ele>
        <time>2022-09-23T13:52:34Z</time>
      </trkpt>
      <trkpt lat="45.22702" lon="5.83585">
        <ele>226.53</ele>
        <time>2022-09-23T13:52:45Z</time>
      </trkpt>
      <trkpt lat="45.22715" lon="5.83603">
        <ele>226.05</ele>
        <time>2022-09-23T13:52:58Z</time>
      </trkpt>
      <trkpt lat="45.22728" lon="5.8362">
        <ele>226.05</ele>
        <time>2022-09-23T13:53:11Z</time>
      </trkpt>
      <trkpt lat="45.2274" lon="5.83635">
        <ele>226.05</ele>
        <time>2022-09-23T13:53:23Z</time>
      </trkpt>
      <trkpt lat="45.22747" lon="5.83648">
        <ele>226.05</ele>
        <time>2022-09-23T13:53:32Z</time>
      </trkpt>
      <trkpt lat="45.2276" lon="5.83664">
        <ele>226.05</ele>
        <time>2022-09-23T13:53:44Z</time>
      </trkpt>
      <trkpt lat="45.22771" lon="5.8368">
        <ele>226.05</ele>
        <time>2022-09-23T13:53:56Z</time>
      </trkpt>
      <trkpt lat="45.22783" lon="5.83698">
        <ele>226.05</ele>
        <time>2022-09-23T13:54:09Z</time>
      </trkpt>
      <trkpt lat="45.22793" lon="5.83713">
        <ele>227.49</ele>
        <time>2022-09-23T13:54:21Z</time>
      </trkpt>
      <trkpt lat="45.22803" lon="5.83727">
        <ele>228.45</ele>
        <time>2022-09-23T13:54:33Z</time>
      </trkpt>
      <trkpt lat="45.22817" lon="5.83734">
        <ele>228.45</ele>
        <time>2022-09-23T13:54:44Z</time>
      </trkpt>
      <trkpt lat="45.22818" lon="5.83734">
        <ele>228.45</ele>
        <time>2022-09-23T13:54:45Z</time>
      </trkpt>
      <trkpt lat="45.22826" lon="5.83735">
        <ele>226.53</ele>
        <time>2022-09-23T13:54:59Z</time>
      </trkpt>
      <trkpt lat="45.22839" lon="5.83731">
        <ele>225.57</ele>
        <time>2022-09-23T13:55:13Z</time>
      </trkpt>
      <trkpt lat="45.22847" lon="5.83726">
        <ele>225.57</ele>
        <time>2022-09-23T13:55:21Z</time>
      </trkpt>
      <trkpt lat="45.22848" lon="5.83724">
        <ele>225.57</ele>
        <time>2022-09-23T13:55:22Z</time>
      </trkpt>
      <trkpt lat="45.22866" lon="5.83707">
        <ele>225.57</ele>
        <time>2022-09-23T13:55:39Z</time>
      </trkpt>
      <trkpt lat="45.22879" lon="5.83691">
        <ele>225.57</ele>
        <time>2022-09-23T13:55:54Z</time>
      </trkpt>
      <trkpt lat="45.22897" lon="5.83669">
        <ele>225.57</ele>
        <time>2022-09-23T13:56:10Z</time>
      </trkpt>
      <trkpt lat="45.2291" lon="5.83656">
        <ele>225.57</ele>
        <time>2022-09-23T13:56:23Z</time>
      </trkpt>
      <trkpt lat="45.22912" lon="5.83654">
        <ele>225.57</ele>
        <time>2022-09-23T13:56:25Z</time>
      </trkpt>
      <trkpt lat="45.22914" lon="5.83654">
        <ele>225.57</ele>
        <time>2022-09-23T13:56:26Z</time>
      </trkpt>
      <trkpt lat="45.22915" lon="5.83653">
        <ele>225.57</ele>
        <time>2022-09-23T13:56:27Z</time>
      </trkpt>
      <trkpt lat="45.22931" lon="5.83647">
        <ele>225.57</ele>
        <time>2022-09-23T13:56:39Z</time>
      </trkpt>
      <trkpt lat="45.22939" lon="5.83654">
        <ele>225.57</ele>
        <time>2022-09-23T13:56:49Z</time>
      </trkpt>
      <trkpt lat="45.22949" lon="5.83667">
        <ele>225.57</ele>
        <time>2022-09-23T13:57:01Z</time>
      </trkpt>
      <trkpt lat="45.2295" lon="5.83668">
        <ele>225.57</ele>
        <time>2022-09-23T13:57:02Z</time>
      </trkpt>
      <trkpt lat="45.22951" lon="5.8367">
        <ele>225.57</ele>
        <time>2022-09-23T13:57:03Z</time>
      </trkpt>
      <trkpt lat="45.22952" lon="5.83672">
        <ele>225.57</ele>
        <time>2022-09-23T13:57:04Z</time>
      </trkpt>
      <trkpt lat="45.22954" lon="5.83673">
        <ele>225.57</ele>
        <time>2022-09-23T13:57:05Z</time>
      </trkpt>
      <trkpt lat="45.22962" lon="5.83683">
        <ele>225.57</ele>
        <time>2022-09-23T13:57:15Z</time>
      </trkpt>
      <trkpt lat="45.22965" lon="5.83685">
        <ele>227.01</ele>
        <time>2022-09-23T13:57:18Z</time>
      </trkpt>
      <trkpt lat="45.22977" lon="5.83696">
        <ele>228.45</ele>
        <time>2022-09-23T13:57:31Z</time>
      </trkpt>
      <trkpt lat="45.22988" lon="5.83699">
        <ele>228.93</ele>
        <time>2022-09-23T13:57:40Z</time>
      </trkpt>
      <trkpt lat="45.23008" lon="5.83706">
        <ele>228.93</ele>
        <time>2022-09-23T13:57:57Z</time>
      </trkpt>
      <trkpt lat="45.23011" lon="5.83709">
        <ele>228.93</ele>
        <time>2022-09-23T13:58:00Z</time>
      </trkpt>
      <trkpt lat="45.23012" lon="5.8371">
        <ele>229.41</ele>
        <time>2022-09-23T13:58:01Z</time>
      </trkpt>
      <trkpt lat="45.23019" lon="5.83719">
        <ele>229.41</ele>
        <time>2022-09-23T13:58:08Z</time>
      </trkpt>
      <trkpt lat="45.23021" lon="5.8372">
        <ele>229.41</ele>
        <time>2022-09-23T13:58:09Z</time>
      </trkpt>
      <trkpt lat="45.23027" lon="5.83726">
        <ele>229.41</ele>
        <time>2022-09-23T13:58:17Z</time>
      </trkpt>
      <trkpt lat="45.23028" lon="5.83727">
        <ele>229.41</ele>
        <time>2022-09-23T13:58:18Z</time>
      </trkpt>
      <trkpt lat="45.23045" lon="5.83737">
        <ele>229.41</ele>
        <time>2022-09-23T13:58:31Z</time>
      </trkpt>
      <trkpt lat="45.23047" lon="5.83737">
        <ele>229.41</ele>
        <time>2022-09-23T13:58:33Z</time>
      </trkpt>
      <trkpt lat="45.2305" lon="5.83738">
        <ele>229.41</ele>
        <time>2022-09-23T13:58:34Z</time>
      </trkpt>
      <trkpt lat="45.23052" lon="5.83739">
        <ele>229.89</ele>
        <time>2022-09-23T13:58:35Z</time>
      </trkpt>
      <trkpt lat="45.23074" lon="5.83745">
        <ele>229.89</ele>
        <time>2022-09-23T13:58:49Z</time>
      </trkpt>
      <trkpt lat="45.23084" lon="5.83745">
        <ele>229.89</ele>
        <time>2022-09-23T13:58:57Z</time>
      </trkpt>
      <trkpt lat="45.23086" lon="5.83746">
        <ele>229.89</ele>
        <time>2022-09-23T13:58:58Z</time>
      </trkpt>
      <trkpt lat="45.231" lon="5.8375">
        <ele>229.89</ele>
        <time>2022-09-23T13:59:09Z</time>
      </trkpt>
      <trkpt lat="45.23102" lon="5.8375">
        <ele>229.89</ele>
        <time>2022-09-23T13:59:10Z</time>
      </trkpt>
      <trkpt lat="45.23121" lon="5.83746">
        <ele>229.89</ele>
        <time>2022-09-23T13:59:24Z</time>
      </trkpt>
      <trkpt lat="45.23141" lon="5.83744">
        <ele>230.37</ele>
        <time>2022-09-23T13:59:38Z</time>
      </trkpt>
      <trkpt lat="45.23147" lon="5.83741">
        <ele>230.37</ele>
        <time>2022-09-23T13:59:42Z</time>
      </trkpt>
      <trkpt lat="45.23161" lon="5.83729">
        <ele>228.93</ele>
        <time>2022-09-23T13:59:54Z</time>
      </trkpt>
      <trkpt lat="45.23174" lon="5.83724">
        <ele>227.97</ele>
        <time>2022-09-23T14:00:02Z</time>
      </trkpt>
      <trkpt lat="45.23175" lon="5.83725">
        <ele>227.97</ele>
        <time>2022-09-23T14:00:03Z</time>
      </trkpt>
      <trkpt lat="45.23193" lon="5.83734">
        <ele>227.97</ele>
        <time>2022-09-23T14:00:17Z</time>
      </trkpt>
      <trkpt lat="45.23206" lon="5.83745">
        <ele>227.97</ele>
        <time>2022-09-23T14:00:29Z</time>
      </trkpt>
      <trkpt lat="45.23207" lon="5.83747">
        <ele>227.97</ele>
        <time>2022-09-23T14:00:30Z</time>
      </trkpt>
      <trkpt lat="45.23223" lon="5.83757">
        <ele>227.97</ele>
        <time>2022-09-23T14:00:42Z</time>
      </trkpt>
      <trkpt lat="45.23235" lon="5.8377">
        <ele>227.97</ele>
        <time>2022-09-23T14:00:54Z</time>
      </trkpt>
      <trkpt lat="45.23245" lon="5.83791">
        <ele>227.97</ele>
        <time>2022-09-23T14:01:08Z</time>
      </trkpt>
      <trkpt lat="45.2325" lon="5.83804">
        <ele>227.97</ele>
        <time>2022-09-23T14:01:17Z</time>
      </trkpt>
      <trkpt lat="45.23251" lon="5.83806">
        <ele>227.97</ele>
        <time>2022-09-23T14:01:18Z</time>
      </trkpt>
      <trkpt lat="45.23251" lon="5.83807">
        <ele>227.49</ele>
        <time>2022-09-23T14:01:19Z</time>
      </trkpt>
      <trkpt lat="45.23255" lon="5.83816">
        <ele>227.49</ele>
        <time>2022-09-23T14:01:25Z</time>
      </trkpt>
      <trkpt lat="45.23257" lon="5.83825">
        <ele>227.49</ele>
        <time>2022-09-23T14:01:31Z</time>
      </trkpt>
      <trkpt lat="45.23258" lon="5.83827">
        <ele>227.49</ele>
        <time>2022-09-23T14:01:32Z</time>
      </trkpt>
      <trkpt lat="45.23258" lon="5.83829">
        <ele>227.49</ele>
        <time>2022-09-23T14:01:33Z</time>
      </trkpt>
      <trkpt lat="45.23258" lon="5.83831">
        <ele>227.49</ele>
        <time>2022-09-23T14:01:34Z</time>
      </trkpt>
      <trkpt lat="45.23259" lon="5.83837">
        <ele>227.49</ele>
        <time>2022-09-23T14:01:38Z</time>
      </trkpt>
      <trkpt lat="45.23259" lon="5.83839">
        <ele>227.49</ele>
        <time>2022-09-23T14:01:39Z</time>
      </trkpt>
      <trkpt lat="45.2326" lon="5.83842">
        <ele>227.49</ele>
        <time>2022-09-23T14:01:40Z</time>
      </trkpt>
      <trkpt lat="45.23261" lon="5.83848">
        <ele>227.49</ele>
        <time>2022-09-23T14:01:45Z</time>
      </trkpt>
      <trkpt lat="45.23262" lon="5.8385">
        <ele>227.49</ele>
        <time>2022-09-23T14:01:46Z</time>
      </trkpt>
      <trkpt lat="45.23262" lon="5.83853">
        <ele>227.49</ele>
        <time>2022-09-23T14:01:47Z</time>
      </trkpt>
      <trkpt lat="45.23262" lon="5.83855">
        <ele>227.49</ele>
        <time>2022-09-23T14:01:48Z</time>
      </trkpt>
      <trkpt lat="45.23272" lon="5.83883">
        <ele>227.49</ele>
        <time>2022-09-23T14:02:03Z</time>
      </trkpt>
      <trkpt lat="45.2328" lon="5.839">
        <ele>227.49</ele>
        <time>2022-09-23T14:02:14Z</time>
      </trkpt>
      <trkpt lat="45.23281" lon="5.83902">
        <ele>227.49</ele>
        <time>2022-09-23T14:02:15Z</time>
      </trkpt>
      <trkpt lat="45.23282" lon="5.83904">
        <ele>227.49</ele>
        <time>2022-09-23T14:02:16Z</time>
      </trkpt>
      <trkpt lat="45.23282" lon="5.83906">
        <ele>227.49</ele>
        <time>2022-09-23T14:02:17Z</time>
      </trkpt>
      <trkpt lat="45.23283" lon="5.83908">
        <ele>227.49</ele>
        <time>2022-09-23T14:02:18Z</time>
      </trkpt>
      <trkpt lat="45.2329" lon="5.83923">
        <ele>227.49</ele>
        <time>2022-09-23T14:02:29Z</time>
      </trkpt>
      <trkpt lat="45.23291" lon="5.83924">
        <ele>227.49</ele>
        <time>2022-09-23T14:02:30Z</time>
      </trkpt>
      <trkpt lat="45.23292" lon="5.83927">
        <ele>227.49</ele>
        <time>2022-09-23T14:02:31Z</time>
      </trkpt>
      <trkpt lat="45.23293" lon="5.83929">
        <ele>227.49</ele>
        <time>2022-09-23T14:02:32Z</time>
      </trkpt>
      <trkpt lat="45.23299" lon="5.83943">
        <ele>227.49</ele>
        <time>2022-09-23T14:02:41Z</time>
      </trkpt>
      <trkpt lat="45.23308" lon="5.83958">
        <ele>227.49</ele>
        <time>2022-09-23T14:02:52Z</time>
      </trkpt>
      <trkpt lat="45.23317" lon="5.83975">
        <ele>227.01</ele>
        <time>2022-09-23T14:03:04Z</time>
      </trkpt>
      <trkpt lat="45.23327" lon="5.83991">
        <ele>227.01</ele>
        <time>2022-09-23T14:03:15Z</time>
      </trkpt>
      <trkpt lat="45.23339" lon="5.84003">
        <ele>228.45</ele>
        <time>2022-09-23T14:03:26Z</time>
      </trkpt>
      <trkpt lat="45.23355" lon="5.84017">
        <ele>227.97</ele>
        <time>2022-09-23T14:03:37Z</time>
      </trkpt>
      <trkpt lat="45.2336" lon="5.84024">
        <ele>227.97</ele>
        <time>2022-09-23T14:03:50Z</time>
      </trkpt>
      <trkpt lat="45.2336" lon="5.84024">
        <ele>227.97</ele>
        <time>2022-09-23T14:04:20Z</time>
      </trkpt>
      <trkpt lat="45.23367" lon="5.84038">
        <ele>227.97</ele>
        <time>2022-09-23T14:04:35Z</time>
      </trkpt>
      <trkpt lat="45.23376" lon="5.84061">
        <ele>227.97</ele>
        <time>2022-09-23T14:04:50Z</time>
      </trkpt>
      <trkpt lat="45.23381" lon="5.84088">
        <ele>227.97</ele>
        <time>2022-09-23T14:05:03Z</time>
      </trkpt>
      <trkpt lat="45.23384" lon="5.84107">
        <ele>227.97</ele>
        <time>2022-09-23T14:05:14Z</time>
      </trkpt>
      <trkpt lat="45.23388" lon="5.84131">
        <ele>227.97</ele>
        <time>2022-09-23T14:05:28Z</time>
      </trkpt>
      <trkpt lat="45.23388" lon="5.8415">
        <ele>227.97</ele>
        <time>2022-09-23T14:05:39Z</time>
      </trkpt>
      <trkpt lat="45.23388" lon="5.84152">
        <ele>227.97</ele>
        <time>2022-09-23T14:05:40Z</time>
      </trkpt>
      <trkpt lat="45.23386" lon="5.84164">
        <ele>227.97</ele>
        <time>2022-09-23T14:05:47Z</time>
      </trkpt>
      <trkpt lat="45.23383" lon="5.84168">
        <ele>227.97</ele>
        <time>2022-09-23T14:05:50Z</time>
      </trkpt>
      <trkpt lat="45.23377" lon="5.84172">
        <ele>227.97</ele>
        <time>2022-09-23T14:05:56Z</time>
      </trkpt>
      <trkpt lat="45.23377" lon="5.84174">
        <ele>227.97</ele>
        <time>2022-09-23T14:05:57Z</time>
      </trkpt>
      <trkpt lat="45.23373" lon="5.84187">
        <ele>228.93</ele>
        <time>2022-09-23T14:06:07Z</time>
      </trkpt>
      <trkpt lat="45.23372" lon="5.84189">
        <ele>228.93</ele>
        <time>2022-09-23T14:06:08Z</time>
      </trkpt>
      <trkpt lat="45.23362" lon="5.84204">
        <ele>228.93</ele>
        <time>2022-09-23T14:06:21Z</time>
      </trkpt>
      <trkpt lat="45.23351" lon="5.84215">
        <ele>229.41</ele>
        <time>2022-09-23T14:06:35Z</time>
      </trkpt>
      <trkpt lat="45.23343" lon="5.84234">
        <ele>229.41</ele>
        <time>2022-09-23T14:06:48Z</time>
      </trkpt>
      <trkpt lat="45.23331" lon="5.84254">
        <ele>228.93</ele>
        <time>2022-09-23T14:07:04Z</time>
      </trkpt>
      <trkpt lat="45.2333" lon="5.84256">
        <ele>228.93</ele>
        <time>2022-09-23T14:07:05Z</time>
      </trkpt>
      <trkpt lat="45.23315" lon="5.84278">
        <ele>228.93</ele>
        <time>2022-09-23T14:07:19Z</time>
      </trkpt>
      <trkpt lat="45.23307" lon="5.84296">
        <ele>228.93</ele>
        <time>2022-09-23T14:07:29Z</time>
      </trkpt>
      <trkpt lat="45.23297" lon="5.84318">
        <ele>229.41</ele>
        <time>2022-09-23T14:07:43Z</time>
      </trkpt>
      <trkpt lat="45.23289" lon="5.84328">
        <ele>229.41</ele>
        <time>2022-09-23T14:07:51Z</time>
      </trkpt>
      <trkpt lat="45.23281" lon="5.84341">
        <ele>229.41</ele>
        <time>2022-09-23T14:08:00Z</time>
      </trkpt>
      <trkpt lat="45.23275" lon="5.84347">
        <ele>229.41</ele>
        <time>2022-09-23T14:08:07Z</time>
      </trkpt>
      <trkpt lat="45.23271" lon="5.84359">
        <ele>229.41</ele>
        <time>2022-09-23T14:08:20Z</time>
      </trkpt>
      <trkpt lat="45.23267" lon="5.84364">
        <ele>229.89</ele>
        <time>2022-09-23T14:08:40Z</time>
      </trkpt>
      <trkpt lat="45.23257" lon="5.84372">
        <ele>229.89</ele>
        <time>2022-09-23T14:08:53Z</time>
      </trkpt>
      <trkpt lat="45.23255" lon="5.84373">
        <ele>229.89</ele>
        <time>2022-09-23T14:08:55Z</time>
      </trkpt>
      <trkpt lat="45.23246" lon="5.8438">
        <ele>229.41</ele>
        <time>2022-09-23T14:09:05Z</time>
      </trkpt>
      <trkpt lat="45.23228" lon="5.844">
        <ele>229.41</ele>
        <time>2022-09-23T14:09:21Z</time>
      </trkpt>
      <trkpt lat="45.23214" lon="5.84413">
        <ele>229.41</ele>
        <time>2022-09-23T14:09:34Z</time>
      </trkpt>
      <trkpt lat="45.23199" lon="5.8443">
        <ele>229.41</ele>
        <time>2022-09-23T14:09:47Z</time>
      </trkpt>
      <trkpt lat="45.23195" lon="5.84433">
        <ele>229.41</ele>
        <time>2022-09-23T14:09:52Z</time>
      </trkpt>
      <trkpt lat="45.23176" lon="5.84439">
        <ele>229.41</ele>
        <time>2022-09-23T14:10:08Z</time>
      </trkpt>
      <trkpt lat="45.23175" lon="5.84441">
        <ele>229.41</ele>
        <time>2022-09-23T14:10:09Z</time>
      </trkpt>
      <trkpt lat="45.23161" lon="5.84461">
        <ele>229.41</ele>
        <time>2022-09-23T14:10:22Z</time>
      </trkpt>
      <trkpt lat="45.23159" lon="5.84465">
        <ele>229.41</ele>
        <time>2022-09-23T14:10:26Z</time>
      </trkpt>
      <trkpt lat="45.23156" lon="5.84474">
        <ele>229.41</ele>
        <time>2022-09-23T14:10:30Z</time>
      </trkpt>
      <trkpt lat="45.23146" lon="5.84496">
        <ele>229.41</ele>
        <time>2022-09-23T14:10:44Z</time>
      </trkpt>
      <trkpt lat="45.2313" lon="5.84513">
        <ele>229.41</ele>
        <time>2022-09-23T14:10:57Z</time>
      </trkpt>
      <trkpt lat="45.23112" lon="5.84528">
        <ele>227.97</ele>
        <time>2022-09-23T14:11:12Z</time>
      </trkpt>
      <trkpt lat="45.23108" lon="5.84533">
        <ele>227.97</ele>
        <time>2022-09-23T14:11:19Z</time>
      </trkpt>
      <trkpt lat="45.23095" lon="5.8455">
        <ele>228.93</ele>
        <time>2022-09-23T14:11:36Z</time>
      </trkpt>
      <trkpt lat="45.23093" lon="5.84568">
        <ele>228.93</ele>
        <time>2022-09-23T14:12:11Z</time>
      </trkpt>
      <trkpt lat="45.23093" lon="5.84575">
        <ele>228.93</ele>
        <time>2022-09-23T14:12:45Z</time>
      </trkpt>
      <trkpt lat="45.23092" lon="5.84574">
        <ele>228.93</ele>
        <time>2022-09-23T14:13:17Z</time>
      </trkpt>
      <trkpt lat="45.23091" lon="5.84579">
        <ele>228.93</ele>
        <time>2022-09-23T14:13:48Z</time>
      </trkpt>
      <trkpt lat="45.23085" lon="5.8458">
        <ele>228.93</ele>
        <time>2022-09-23T14:14:08Z</time>
      </trkpt>
      <trkpt lat="45.2308" lon="5.84584">
        <ele>228.93</ele>
        <time>2022-09-23T14:14:14Z</time>
      </trkpt>
      <trkpt lat="45.23068" lon="5.84609">
        <ele>229.41</ele>
        <time>2022-09-23T14:14:32Z</time>
      </trkpt>
      <trkpt lat="45.23057" lon="5.84634">
        <ele>229.41</ele>
        <time>2022-09-23T14:14:49Z</time>
      </trkpt>
      <trkpt lat="45.23046" lon="5.84653">
        <ele>229.89</ele>
        <time>2022-09-23T14:15:05Z</time>
      </trkpt>
      <trkpt lat="45.23042" lon="5.8466">
        <ele>229.89</ele>
        <time>2022-09-23T14:15:10Z</time>
      </trkpt>
      <trkpt lat="45.23041" lon="5.84667">
        <ele>229.89</ele>
        <time>2022-09-23T14:15:13Z</time>
      </trkpt>
      <trkpt lat="45.23035" lon="5.84698">
        <ele>229.89</ele>
        <time>2022-09-23T14:15:29Z</time>
      </trkpt>
      <trkpt lat="45.23028" lon="5.8473">
        <ele>229.89</ele>
        <time>2022-09-23T14:15:46Z</time>
      </trkpt>
      <trkpt lat="45.23019" lon="5.84754">
        <ele>229.89</ele>
        <time>2022-09-23T14:16:00Z</time>
      </trkpt>
      <trkpt lat="45.23016" lon="5.84785">
        <ele>229.89</ele>
        <time>2022-09-23T14:16:14Z</time>
      </trkpt>
      <trkpt lat="45.23017" lon="5.84802">
        <ele>229.89</ele>
        <time>2022-09-23T14:16:23Z</time>
      </trkpt>
      <trkpt lat="45.23016" lon="5.84817">
        <ele>229.89</ele>
        <time>2022-09-23T14:16:30Z</time>
      </trkpt>
      <trkpt lat="45.23007" lon="5.84842">
        <ele>229.89</ele>
        <time>2022-09-23T14:16:43Z</time>
      </trkpt>
      <trkpt lat="45.23005" lon="5.84848">
        <ele>229.89</ele>
        <time>2022-09-23T14:16:47Z</time>
      </trkpt>
      <trkpt lat="45.23002" lon="5.84855">
        <ele>229.89</ele>
        <time>2022-09-23T14:16:51Z</time>
      </trkpt>
      <trkpt lat="45.23001" lon="5.84863">
        <ele>229.89</ele>
        <time>2022-09-23T14:16:57Z</time>
      </trkpt>
      <trkpt lat="45.22994" lon="5.84875">
        <ele>229.89</ele>
        <time>2022-09-23T14:17:10Z</time>
      </trkpt>
      <trkpt lat="45.22987" lon="5.8488">
        <ele>228.93</ele>
        <time>2022-09-23T14:17:30Z</time>
      </trkpt>
      <trkpt lat="45.22988" lon="5.8488">
        <ele>228.93</ele>
        <time>2022-09-23T14:17:31Z</time>
      </trkpt>
      <trkpt lat="45.22991" lon="5.84882">
        <ele>230.37</ele>
        <time>2022-09-23T14:17:34Z</time>
      </trkpt>
      <trkpt lat="45.22992" lon="5.84887">
        <ele>230.37</ele>
        <time>2022-09-23T14:17:38Z</time>
      </trkpt>
      <trkpt lat="45.22986" lon="5.84911">
        <ele>230.37</ele>
        <time>2022-09-23T14:17:53Z</time>
      </trkpt>
      <trkpt lat="45.22985" lon="5.84916">
        <ele>230.37</ele>
        <time>2022-09-23T14:17:56Z</time>
      </trkpt>
      <trkpt lat="45.22987" lon="5.8494">
        <ele>230.37</ele>
        <time>2022-09-23T14:18:06Z</time>
      </trkpt>
      <trkpt lat="45.22977" lon="5.84964">
        <ele>230.37</ele>
        <time>2022-09-23T14:18:22Z</time>
      </trkpt>
      <trkpt lat="45.22967" lon="5.84992">
        <ele>230.37</ele>
        <time>2022-09-23T14:18:39Z</time>
      </trkpt>
      <trkpt lat="45.22957" lon="5.85018">
        <ele>230.37</ele>
        <time>2022-09-23T14:18:54Z</time>
      </trkpt>
      <trkpt lat="45.22956" lon="5.85024">
        <ele>230.37</ele>
        <time>2022-09-23T14:18:57Z</time>
      </trkpt>
      <trkpt lat="45.22944" lon="5.85056">
        <ele>230.37</ele>
        <time>2022-09-23T14:19:13Z</time>
      </trkpt>
      <trkpt lat="45.22932" lon="5.85083">
        <ele>230.37</ele>
        <time>2022-09-23T14:19:28Z</time>
      </trkpt>
      <trkpt lat="45.22929" lon="5.85094">
        <ele>230.37</ele>
        <time>2022-09-23T14:19:35Z</time>
      </trkpt>
      <trkpt lat="45.22924" lon="5.85123">
        <ele>230.37</ele>
        <time>2022-09-23T14:19:52Z</time>
      </trkpt>
      <trkpt lat="45.22924" lon="5.85132">
        <ele>230.85</ele>
        <time>2022-09-23T14:19:58Z</time>
      </trkpt>
      <trkpt lat="45.22939" lon="5.85157">
        <ele>231.33</ele>
        <time>2022-09-23T14:20:16Z</time>
      </trkpt>
      <trkpt lat="45.22954" lon="5.8518">
        <ele>231.33</ele>
        <time>2022-09-23T14:20:32Z</time>
      </trkpt>
      <trkpt lat="45.2297" lon="5.85205">
        <ele>231.81</ele>
        <time>2022-09-23T14:20:49Z</time>
      </trkpt>
      <trkpt lat="45.22973" lon="5.85208">
        <ele>231.81</ele>
        <time>2022-09-23T14:20:55Z</time>
      </trkpt>
      <trkpt lat="45.22978" lon="5.85213">
        <ele>231.81</ele>
        <time>2022-09-23T14:21:00Z</time>
      </trkpt>
      <trkpt lat="45.22991" lon="5.8523">
        <ele>230.37</ele>
        <time>2022-09-23T14:21:11Z</time>
      </trkpt>
      <trkpt lat="45.22991" lon="5.85233">
        <ele>229.89</ele>
        <time>2022-09-23T14:21:13Z</time>
      </trkpt>
      <trkpt lat="45.22989" lon="5.85255">
        <ele>229.89</ele>
        <time>2022-09-23T14:21:25Z</time>
      </trkpt>
      <trkpt lat="45.2299" lon="5.85257">
        <ele>229.89</ele>
        <time>2022-09-23T14:21:27Z</time>
      </trkpt>
      <trkpt lat="45.23007" lon="5.85274">
        <ele>229.89</ele>
        <time>2022-09-23T14:21:41Z</time>
      </trkpt>
      <trkpt lat="45.2301" lon="5.85273">
        <ele>229.89</ele>
        <time>2022-09-23T14:21:45Z</time>
      </trkpt>
      <trkpt lat="45.23028" lon="5.8526">
        <ele>229.89</ele>
        <time>2022-09-23T14:21:59Z</time>
      </trkpt>
      <trkpt lat="45.23036" lon="5.85251">
        <ele>229.41</ele>
        <time>2022-09-23T14:22:06Z</time>
      </trkpt>
      <trkpt lat="45.23045" lon="5.85244">
        <ele>229.41</ele>
        <time>2022-09-23T14:22:14Z</time>
      </trkpt>
      <trkpt lat="45.23059" lon="5.8523">
        <ele>229.41</ele>
        <time>2022-09-23T14:22:26Z</time>
      </trkpt>
      <trkpt lat="45.23073" lon="5.85216">
        <ele>229.41</ele>
        <time>2022-09-23T14:22:38Z</time>
      </trkpt>
      <trkpt lat="45.23089" lon="5.85197">
        <ele>229.41</ele>
        <time>2022-09-23T14:22:51Z</time>
      </trkpt>
      <trkpt lat="45.23104" lon="5.85177">
        <ele>229.41</ele>
        <time>2022-09-23T14:23:06Z</time>
      </trkpt>
      <trkpt lat="45.2312" lon="5.85162">
        <ele>229.41</ele>
        <time>2022-09-23T14:23:19Z</time>
      </trkpt>
      <trkpt lat="45.23134" lon="5.85145">
        <ele>229.41</ele>
        <time>2022-09-23T14:23:33Z</time>
      </trkpt>
      <trkpt lat="45.23151" lon="5.85126">
        <ele>229.41</ele>
        <time>2022-09-23T14:23:48Z</time>
      </trkpt>
      <trkpt lat="45.23164" lon="5.85112">
        <ele>229.41</ele>
        <time>2022-09-23T14:24:00Z</time>
      </trkpt>
      <trkpt lat="45.23178" lon="5.85095">
        <ele>229.41</ele>
        <time>2022-09-23T14:24:14Z</time>
      </trkpt>
      <trkpt lat="45.23192" lon="5.85079">
        <ele>229.41</ele>
        <time>2022-09-23T14:24:28Z</time>
      </trkpt>
      <trkpt lat="45.23194" lon="5.85078">
        <ele>229.41</ele>
        <time>2022-09-23T14:24:29Z</time>
      </trkpt>
      <trkpt lat="45.23203" lon="5.85068">
        <ele>229.41</ele>
        <time>2022-09-23T14:24:37Z</time>
      </trkpt>
      <trkpt lat="45.23204" lon="5.85067">
        <ele>229.41</ele>
        <time>2022-09-23T14:24:38Z</time>
      </trkpt>
      <trkpt lat="45.23222" lon="5.85059">
        <ele>229.41</ele>
        <time>2022-09-23T14:24:51Z</time>
      </trkpt>
      <trkpt lat="45.23239" lon="5.85051">
        <ele>229.41</ele>
        <time>2022-09-23T14:25:03Z</time>
      </trkpt>
      <trkpt lat="45.23248" lon="5.85048">
        <ele>230.85</ele>
        <time>2022-09-23T14:25:11Z</time>
      </trkpt>
      <trkpt lat="45.23264" lon="5.85044">
        <ele>230.85</ele>
        <time>2022-09-23T14:25:23Z</time>
      </trkpt>
      <trkpt lat="45.23282" lon="5.85039">
        <ele>230.85</ele>
        <time>2022-09-23T14:25:37Z</time>
      </trkpt>
      <trkpt lat="45.23302" lon="5.85027">
        <ele>230.37</ele>
        <time>2022-09-23T14:25:51Z</time>
      </trkpt>
      <trkpt lat="45.23306" lon="5.85025">
        <ele>229.41</ele>
        <time>2022-09-23T14:25:55Z</time>
      </trkpt>
      <trkpt lat="45.23307" lon="5.85024">
        <ele>229.41</ele>
        <time>2022-09-23T14:25:56Z</time>
      </trkpt>
      <trkpt lat="45.23324" lon="5.85009">
        <ele>229.41</ele>
        <time>2022-09-23T14:26:08Z</time>
      </trkpt>
      <trkpt lat="45.23341" lon="5.84993">
        <ele>229.41</ele>
        <time>2022-09-23T14:26:22Z</time>
      </trkpt>
      <trkpt lat="45.23357" lon="5.84975">
        <ele>229.41</ele>
        <time>2022-09-23T14:26:35Z</time>
      </trkpt>
      <trkpt lat="45.23374" lon="5.84962">
        <ele>229.41</ele>
        <time>2022-09-23T14:26:50Z</time>
      </trkpt>
      <trkpt lat="45.23389" lon="5.84949">
        <ele>228.93</ele>
        <time>2022-09-23T14:27:02Z</time>
      </trkpt>
      <trkpt lat="45.23406" lon="5.84938">
        <ele>229.89</ele>
        <time>2022-09-23T14:27:15Z</time>
      </trkpt>
      <trkpt lat="45.23419" lon="5.84927">
        <ele>228.45</ele>
        <time>2022-09-23T14:27:26Z</time>
      </trkpt>
      <trkpt lat="45.23429" lon="5.84915">
        <ele>228.45</ele>
        <time>2022-09-23T14:27:35Z</time>
      </trkpt>
      <trkpt lat="45.23429" lon="5.84913">
        <ele>228.45</ele>
        <time>2022-09-23T14:27:36Z</time>
      </trkpt>
      <trkpt lat="45.2343" lon="5.84911">
        <ele>228.45</ele>
        <time>2022-09-23T14:27:37Z</time>
      </trkpt>
      <trkpt lat="45.23429" lon="5.8489">
        <ele>228.45</ele>
        <time>2022-09-23T14:27:49Z</time>
      </trkpt>
      <trkpt lat="45.23427" lon="5.84866">
        <ele>228.45</ele>
        <time>2022-09-23T14:28:01Z</time>
      </trkpt>
      <trkpt lat="45.23424" lon="5.84837">
        <ele>228.45</ele>
        <time>2022-09-23T14:28:16Z</time>
      </trkpt>
      <trkpt lat="45.23423" lon="5.84811">
        <ele>228.45</ele>
        <time>2022-09-23T14:28:30Z</time>
      </trkpt>
      <trkpt lat="45.23421" lon="5.84786">
        <ele>227.97</ele>
        <time>2022-09-23T14:28:43Z</time>
      </trkpt>
      <trkpt lat="45.23418" lon="5.84759">
        <ele>227.97</ele>
        <time>2022-09-23T14:28:57Z</time>
      </trkpt>
      <trkpt lat="45.23416" lon="5.84737">
        <ele>227.97</ele>
        <time>2022-09-23T14:29:08Z</time>
      </trkpt>
      <trkpt lat="45.23414" lon="5.84711">
        <ele>227.97</ele>
        <time>2022-09-23T14:29:21Z</time>
      </trkpt>
      <trkpt lat="45.23412" lon="5.84683">
        <ele>228.93</ele>
        <time>2022-09-23T14:29:34Z</time>
      </trkpt>
      <trkpt lat="45.2341" lon="5.84661">
        <ele>228.93</ele>
        <time>2022-09-23T14:29:47Z</time>
      </trkpt>
      <trkpt lat="45.23408" lon="5.84648">
        <ele>228.93</ele>
        <time>2022-09-23T14:29:56Z</time>
      </trkpt>
      <trkpt lat="45.23408" lon="5.84646">
        <ele>228.93</ele>
        <time>2022-09-23T14:29:57Z</time>
      </trkpt>
      <trkpt lat="45.23408" lon="5.84644">
        <ele>228.93</ele>
        <time>2022-09-23T14:29:58Z</time>
      </trkpt>
      <trkpt lat="45.23406" lon="5.84635">
        <ele>228.93</ele>
        <time>2022-09-23T14:30:04Z</time>
      </trkpt>
      <trkpt lat="45.23406" lon="5.84633">
        <ele>228.93</ele>
        <time>2022-09-23T14:30:05Z</time>
      </trkpt>
      <trkpt lat="45.23405" lon="5.84619">
        <ele>228.93</ele>
        <time>2022-09-23T14:30:14Z</time>
      </trkpt>
      <trkpt lat="45.23405" lon="5.84617">
        <ele>228.93</ele>
        <time>2022-09-23T14:30:15Z</time>
      </trkpt>
      <trkpt lat="45.234" lon="5.84595">
        <ele>228.45</ele>
        <time>2022-09-23T14:30:31Z</time>
      </trkpt>
      <trkpt lat="45.23398" lon="5.84575">
        <ele>228.45</ele>
        <time>2022-09-23T14:30:42Z</time>
      </trkpt>
      <trkpt lat="45.23403" lon="5.8454">
        <ele>228.45</ele>
        <time>2022-09-23T14:30:57Z</time>
      </trkpt>
      <trkpt lat="45.23403" lon="5.84539">
        <ele>228.45</ele>
        <time>2022-09-23T14:30:58Z</time>
      </trkpt>
      <trkpt lat="45.23403" lon="5.84536">
        <ele>228.45</ele>
        <time>2022-09-23T14:30:59Z</time>
      </trkpt>
      <trkpt lat="45.23408" lon="5.84506">
        <ele>228.45</ele>
        <time>2022-09-23T14:31:14Z</time>
      </trkpt>
      <trkpt lat="45.23414" lon="5.84478">
        <ele>228.45</ele>
        <time>2022-09-23T14:31:28Z</time>
      </trkpt>
      <trkpt lat="45.23415" lon="5.84476">
        <ele>228.45</ele>
        <time>2022-09-23T14:31:29Z</time>
      </trkpt>
      <trkpt lat="45.23415" lon="5.84473">
        <ele>228.45</ele>
        <time>2022-09-23T14:31:30Z</time>
      </trkpt>
      <trkpt lat="45.23415" lon="5.84471">
        <ele>228.45</ele>
        <time>2022-09-23T14:31:31Z</time>
      </trkpt>
      <trkpt lat="45.23417" lon="5.84442">
        <ele>228.45</ele>
        <time>2022-09-23T14:31:45Z</time>
      </trkpt>
      <trkpt lat="45.23417" lon="5.8444">
        <ele>228.45</ele>
        <time>2022-09-23T14:31:46Z</time>
      </trkpt>
      <trkpt lat="45.23418" lon="5.84438">
        <ele>228.45</ele>
        <time>2022-09-23T14:31:47Z</time>
      </trkpt>
      <trkpt lat="45.23418" lon="5.84435">
        <ele>228.45</ele>
        <time>2022-09-23T14:31:48Z</time>
      </trkpt>
      <trkpt lat="45.23422" lon="5.8441">
        <ele>228.45</ele>
        <time>2022-09-23T14:32:02Z</time>
      </trkpt>
      <trkpt lat="45.23422" lon="5.84407">
        <ele>228.45</ele>
        <time>2022-09-23T14:32:03Z</time>
      </trkpt>
      <trkpt lat="45.23423" lon="5.84405">
        <ele>228.45</ele>
        <time>2022-09-23T14:32:04Z</time>
      </trkpt>
      <trkpt lat="45.23423" lon="5.84402">
        <ele>228.45</ele>
        <time>2022-09-23T14:32:05Z</time>
      </trkpt>
      <trkpt lat="45.23424" lon="5.84399">
        <ele>228.45</ele>
        <time>2022-09-23T14:32:06Z</time>
      </trkpt>
      <trkpt lat="45.23429" lon="5.84383">
        <ele>228.45</ele>
        <time>2022-09-23T14:32:14Z</time>
      </trkpt>
      <trkpt lat="45.23429" lon="5.84381">
        <ele>228.45</ele>
        <time>2022-09-23T14:32:15Z</time>
      </trkpt>
      <trkpt lat="45.23429" lon="5.8437">
        <ele>228.45</ele>
        <time>2022-09-23T14:32:21Z</time>
      </trkpt>
      <trkpt lat="45.23429" lon="5.84368">
        <ele>228.45</ele>
        <time>2022-09-23T14:32:22Z</time>
      </trkpt>
      <trkpt lat="45.2343" lon="5.84365">
        <ele>228.45</ele>
        <time>2022-09-23T14:32:23Z</time>
      </trkpt>
      <trkpt lat="45.23431" lon="5.84363">
        <ele>228.45</ele>
        <time>2022-09-23T14:32:24Z</time>
      </trkpt>
      <trkpt lat="45.23431" lon="5.8436">
        <ele>228.45</ele>
        <time>2022-09-23T14:32:25Z</time>
      </trkpt>
      <trkpt lat="45.23436" lon="5.84335">
        <ele>228.45</ele>
        <time>2022-09-23T14:32:38Z</time>
      </trkpt>
      <trkpt lat="45.23443" lon="5.84325">
        <ele>228.45</ele>
        <time>2022-09-23T14:32:49Z</time>
      </trkpt>
      <trkpt lat="45.23444" lon="5.84324">
        <ele>228.45</ele>
        <time>2022-09-23T14:32:50Z</time>
      </trkpt>
      <trkpt lat="45.23457" lon="5.84306">
        <ele>228.45</ele>
        <time>2022-09-23T14:33:05Z</time>
      </trkpt>
      <trkpt lat="45.23458" lon="5.84305">
        <ele>228.45</ele>
        <time>2022-09-23T14:33:06Z</time>
      </trkpt>
      <trkpt lat="45.2346" lon="5.84304">
        <ele>228.45</ele>
        <time>2022-09-23T14:33:07Z</time>
      </trkpt>
      <trkpt lat="45.23475" lon="5.84289">
        <ele>228.45</ele>
        <time>2022-09-23T14:33:19Z</time>
      </trkpt>
      <trkpt lat="45.23489" lon="5.84272">
        <ele>228.45</ele>
        <time>2022-09-23T14:33:31Z</time>
      </trkpt>
      <trkpt lat="45.23489" lon="5.84269">
        <ele>228.45</ele>
        <time>2022-09-23T14:33:32Z</time>
      </trkpt>
      <trkpt lat="45.2349" lon="5.84267">
        <ele>228.45</ele>
        <time>2022-09-23T14:33:33Z</time>
      </trkpt>
      <trkpt lat="45.23491" lon="5.84266">
        <ele>228.45</ele>
        <time>2022-09-23T14:33:34Z</time>
      </trkpt>
      <trkpt lat="45.23493" lon="5.84264">
        <ele>228.45</ele>
        <time>2022-09-23T14:33:35Z</time>
      </trkpt>
      <trkpt lat="45.23502" lon="5.84245">
        <ele>228.45</ele>
        <time>2022-09-23T14:33:48Z</time>
      </trkpt>
      <trkpt lat="45.23503" lon="5.84243">
        <ele>228.45</ele>
        <time>2022-09-23T14:33:49Z</time>
      </trkpt>
      <trkpt lat="45.23507" lon="5.84228">
        <ele>228.45</ele>
        <time>2022-09-23T14:33:58Z</time>
      </trkpt>
      <trkpt lat="45.23509" lon="5.84226">
        <ele>228.45</ele>
        <time>2022-09-23T14:33:59Z</time>
      </trkpt>
      <trkpt lat="45.2351" lon="5.84224">
        <ele>228.45</ele>
        <time>2022-09-23T14:34:00Z</time>
      </trkpt>
      <trkpt lat="45.23511" lon="5.84222">
        <ele>228.45</ele>
        <time>2022-09-23T14:34:01Z</time>
      </trkpt>
      <trkpt lat="45.23512" lon="5.8422">
        <ele>228.45</ele>
        <time>2022-09-23T14:34:02Z</time>
      </trkpt>
      <trkpt lat="45.23523" lon="5.84194">
        <ele>228.45</ele>
        <time>2022-09-23T14:34:17Z</time>
      </trkpt>
      <trkpt lat="45.23532" lon="5.84172">
        <ele>227.97</ele>
        <time>2022-09-23T14:34:30Z</time>
      </trkpt>
      <trkpt lat="45.23538" lon="5.8415">
        <ele>227.97</ele>
        <time>2022-09-23T14:34:45Z</time>
      </trkpt>
      <trkpt lat="45.23546" lon="5.84118">
        <ele>227.97</ele>
        <time>2022-09-23T14:35:03Z</time>
      </trkpt>
      <trkpt lat="45.23551" lon="5.84093">
        <ele>227.97</ele>
        <time>2022-09-23T14:35:17Z</time>
      </trkpt>
      <trkpt lat="45.23557" lon="5.84062">
        <ele>228.45</ele>
        <time>2022-09-23T14:35:31Z</time>
      </trkpt>
      <trkpt lat="45.23558" lon="5.84057">
        <ele>228.45</ele>
        <time>2022-09-23T14:35:33Z</time>
      </trkpt>
      <trkpt lat="45.23559" lon="5.84029">
        <ele>228.45</ele>
        <time>2022-09-23T14:35:49Z</time>
      </trkpt>
      <trkpt lat="45.23556" lon="5.84002">
        <ele>228.45</ele>
        <time>2022-09-23T14:36:05Z</time>
      </trkpt>
      <trkpt lat="45.23551" lon="5.8398">
        <ele>228.93</ele>
        <time>2022-09-23T14:36:18Z</time>
      </trkpt>
      <trkpt lat="45.23542" lon="5.83958">
        <ele>228.45</ele>
        <time>2022-09-23T14:36:32Z</time>
      </trkpt>
      <trkpt lat="45.23532" lon="5.83936">
        <ele>228.45</ele>
        <time>2022-09-23T14:36:47Z</time>
      </trkpt>
      <trkpt lat="45.23528" lon="5.83929">
        <ele>228.45</ele>
        <time>2022-09-23T14:36:51Z</time>
      </trkpt>
      <trkpt lat="45.23526" lon="5.83921">
        <ele>228.45</ele>
        <time>2022-09-23T14:36:56Z</time>
      </trkpt>
      <trkpt lat="45.23513" lon="5.83896">
        <ele>228.45</ele>
        <time>2022-09-23T14:37:15Z</time>
      </trkpt>
      <trkpt lat="45.23502" lon="5.83884">
        <ele>228.45</ele>
        <time>2022-09-23T14:37:25Z</time>
      </trkpt>
      <trkpt lat="45.23488" lon="5.83861">
        <ele>228.93</ele>
        <time>2022-09-23T14:37:40Z</time>
      </trkpt>
      <trkpt lat="45.23488" lon="5.83857">
        <ele>228.93</ele>
        <time>2022-09-23T14:38:00Z</time>
      </trkpt>
      <trkpt lat="45.23483" lon="5.8384">
        <ele>228.93</ele>
        <time>2022-09-23T14:38:10Z</time>
      </trkpt>
      <trkpt lat="45.23482" lon="5.83838">
        <ele>228.93</ele>
        <time>2022-09-23T14:38:11Z</time>
      </trkpt>
      <trkpt lat="45.23482" lon="5.83836">
        <ele>228.93</ele>
        <time>2022-09-23T14:38:12Z</time>
      </trkpt>
      <trkpt lat="45.23481" lon="5.83835">
        <ele>228.93</ele>
        <time>2022-09-23T14:38:13Z</time>
      </trkpt>
      <trkpt lat="45.2348" lon="5.83833">
        <ele>228.93</ele>
        <time>2022-09-23T14:38:14Z</time>
      </trkpt>
      <trkpt lat="45.23473" lon="5.83819">
        <ele>228.93</ele>
        <time>2022-09-23T14:38:27Z</time>
      </trkpt>
      <trkpt lat="45.23468" lon="5.83817">
        <ele>228.93</ele>
        <time>2022-09-23T14:38:57Z</time>
      </trkpt>
      <trkpt lat="45.23467" lon="5.83811">
        <ele>229.41</ele>
        <time>2022-09-23T14:39:33Z</time>
      </trkpt>
      <trkpt lat="45.23463" lon="5.83803">
        <ele>228.93</ele>
        <time>2022-09-23T14:39:41Z</time>
      </trkpt>
      <trkpt lat="45.23463" lon="5.838">
        <ele>229.41</ele>
        <time>2022-09-23T14:39:43Z</time>
      </trkpt>
      <trkpt lat="45.23462" lon="5.83799">
        <ele>229.41</ele>
        <time>2022-09-23T14:39:44Z</time>
      </trkpt>
      <trkpt lat="45.23452" lon="5.8378">
        <ele>229.41</ele>
        <time>2022-09-23T14:39:58Z</time>
      </trkpt>
      <trkpt lat="45.23449" lon="5.83772">
        <ele>229.41</ele>
        <time>2022-09-23T14:40:05Z</time>
      </trkpt>
      <trkpt lat="45.23448" lon="5.83771">
        <ele>229.41</ele>
        <time>2022-09-23T14:40:06Z</time>
      </trkpt>
      <trkpt lat="45.23447" lon="5.83769">
        <ele>229.41</ele>
        <time>2022-09-23T14:40:07Z</time>
      </trkpt>
      <trkpt lat="45.23446" lon="5.83767">
        <ele>229.41</ele>
        <time>2022-09-23T14:40:08Z</time>
      </trkpt>
      <trkpt lat="45.23445" lon="5.83765">
        <ele>229.41</ele>
        <time>2022-09-23T14:40:09Z</time>
      </trkpt>
      <trkpt lat="45.23433" lon="5.83752">
        <ele>229.41</ele>
        <time>2022-09-23T14:40:21Z</time>
      </trkpt>
      <trkpt lat="45.23428" lon="5.83751">
        <ele>229.41</ele>
        <time>2022-09-23T14:40:26Z</time>
      </trkpt>
      <trkpt lat="45.23426" lon="5.83751">
        <ele>229.41</ele>
        <time>2022-09-23T14:40:27Z</time>
      </trkpt>
      <trkpt lat="45.23425" lon="5.83751">
        <ele>229.41</ele>
        <time>2022-09-23T14:40:28Z</time>
      </trkpt>
      <trkpt lat="45.23422" lon="5.8375">
        <ele>229.41</ele>
        <time>2022-09-23T14:40:29Z</time>
      </trkpt>
      <trkpt lat="45.23421" lon="5.8375">
        <ele>228.93</ele>
        <time>2022-09-23T14:40:30Z</time>
      </trkpt>
      <trkpt lat="45.23416" lon="5.83746">
        <ele>227.97</ele>
        <time>2022-09-23T14:40:34Z</time>
      </trkpt>
      <trkpt lat="45.23414" lon="5.83746">
        <ele>227.97</ele>
        <time>2022-09-23T14:40:35Z</time>
      </trkpt>
      <trkpt lat="45.23412" lon="5.83745">
        <ele>227.97</ele>
        <time>2022-09-23T14:40:36Z</time>
      </trkpt>
      <trkpt lat="45.23396" lon="5.83733">
        <ele>227.97</ele>
        <time>2022-09-23T14:40:48Z</time>
      </trkpt>
      <trkpt lat="45.23382" lon="5.83723">
        <ele>227.97</ele>
        <time>2022-09-23T14:41:01Z</time>
      </trkpt>
      <trkpt lat="45.23379" lon="5.83718">
        <ele>227.97</ele>
        <time>2022-09-23T14:41:04Z</time>
      </trkpt>
      <trkpt lat="45.2337" lon="5.83705">
        <ele>227.97</ele>
        <time>2022-09-23T14:41:13Z</time>
      </trkpt>
      <trkpt lat="45.23369" lon="5.83704">
        <ele>227.97</ele>
        <time>2022-09-23T14:41:14Z</time>
      </trkpt>
      <trkpt lat="45.23368" lon="5.83702">
        <ele>227.97</ele>
        <time>2022-09-23T14:41:15Z</time>
      </trkpt>
      <trkpt lat="45.23352" lon="5.83688">
        <ele>227.97</ele>
        <time>2022-09-23T14:41:28Z</time>
      </trkpt>
      <trkpt lat="45.23348" lon="5.83679">
        <ele>227.97</ele>
        <time>2022-09-23T14:41:34Z</time>
      </trkpt>
      <trkpt lat="45.23346" lon="5.83678">
        <ele>227.97</ele>
        <time>2022-09-23T14:41:35Z</time>
      </trkpt>
      <trkpt lat="45.23331" lon="5.83657">
        <ele>227.49</ele>
        <time>2022-09-23T14:41:48Z</time>
      </trkpt>
      <trkpt lat="45.23316" lon="5.83644">
        <ele>227.49</ele>
        <time>2022-09-23T14:42:01Z</time>
      </trkpt>
      <trkpt lat="45.23305" lon="5.83632">
        <ele>227.49</ele>
        <time>2022-09-23T14:42:14Z</time>
      </trkpt>
      <trkpt lat="45.23297" lon="5.83619">
        <ele>227.49</ele>
        <time>2022-09-23T14:42:24Z</time>
      </trkpt>
      <trkpt lat="45.23296" lon="5.83618">
        <ele>227.49</ele>
        <time>2022-09-23T14:42:25Z</time>
      </trkpt>
      <trkpt lat="45.23274" lon="5.836">
        <ele>227.49</ele>
        <time>2022-09-23T14:42:43Z</time>
      </trkpt>
      <trkpt lat="45.23268" lon="5.83597">
        <ele>227.49</ele>
        <time>2022-09-23T14:42:46Z</time>
      </trkpt>
      <trkpt lat="45.2325" lon="5.83582">
        <ele>226.53</ele>
        <time>2022-09-23T14:43:02Z</time>
      </trkpt>
      <trkpt lat="45.23234" lon="5.83571">
        <ele>226.05</ele>
        <time>2022-09-23T14:43:13Z</time>
      </trkpt>
      <trkpt lat="45.23233" lon="5.8357">
        <ele>226.05</ele>
        <time>2022-09-23T14:43:14Z</time>
      </trkpt>
      <trkpt lat="45.23232" lon="5.83573">
        <ele>226.05</ele>
        <time>2022-09-23T14:43:18Z</time>
      </trkpt>
      <trkpt lat="45.23232" lon="5.83577">
        <ele>226.05</ele>
        <time>2022-09-23T14:43:32Z</time>
      </trkpt>
      <trkpt lat="45.23231" lon="5.83578">
        <ele>225.57</ele>
        <time>2022-09-23T14:44:00Z</time>
      </trkpt>
      <trkpt lat="45.23232" lon="5.83576">
        <ele>225.09</ele>
        <time>2022-09-23T14:44:34Z</time>
      </trkpt>
      <trkpt lat="45.23231" lon="5.83573">
        <ele>226.53</ele>
        <time>2022-09-23T14:45:00Z</time>
      </trkpt>
      <trkpt lat="45.2323" lon="5.83571">
        <ele>226.53</ele>
        <time>2022-09-23T14:45:01Z</time>
      </trkpt>
      <trkpt lat="45.23229" lon="5.8357">
        <ele>226.53</ele>
        <time>2022-09-23T14:45:02Z</time>
      </trkpt>
      <trkpt lat="45.23228" lon="5.83568">
        <ele>226.53</ele>
        <time>2022-09-23T14:45:03Z</time>
      </trkpt>
      <trkpt lat="45.23227" lon="5.83568">
        <ele>226.53</ele>
        <time>2022-09-23T14:45:04Z</time>
      </trkpt>
      <trkpt lat="45.23226" lon="5.83567">
        <ele>226.53</ele>
        <time>2022-09-23T14:45:05Z</time>
      </trkpt>
      <trkpt lat="45.23225" lon="5.83566">
        <ele>226.53</ele>
        <time>2022-09-23T14:45:06Z</time>
      </trkpt>
      <trkpt lat="45.23213" lon="5.83554">
        <ele>225.09</ele>
        <time>2022-09-23T14:45:18Z</time>
      </trkpt>
      <trkpt lat="45.23209" lon="5.83548">
        <ele>225.09</ele>
        <time>2022-09-23T14:45:25Z</time>
      </trkpt>
      <trkpt lat="45.23193" lon="5.83541">
        <ele>224.61</ele>
        <time>2022-09-23T14:45:41Z</time>
      </trkpt>
      <trkpt lat="45.23175" lon="5.83533">
        <ele>224.61</ele>
        <time>2022-09-23T14:45:56Z</time>
      </trkpt>
      <trkpt lat="45.23158" lon="5.83524">
        <ele>224.61</ele>
        <time>2022-09-23T14:46:11Z</time>
      </trkpt>
      <trkpt lat="45.2315" lon="5.83523">
        <ele>224.61</ele>
        <time>2022-09-23T14:46:17Z</time>
      </trkpt>
      <trkpt lat="45.23127" lon="5.83523">
        <ele>224.61</ele>
        <time>2022-09-23T14:46:32Z</time>
      </trkpt>
      <trkpt lat="45.23123" lon="5.83523">
        <ele>224.61</ele>
        <time>2022-09-23T14:46:36Z</time>
      </trkpt>
      <trkpt lat="45.23103" lon="5.83523">
        <ele>224.61</ele>
        <time>2022-09-23T14:46:52Z</time>
      </trkpt>
      <trkpt lat="45.23087" lon="5.83528">
        <ele>224.61</ele>
        <time>2022-09-23T14:47:03Z</time>
      </trkpt>
      <trkpt lat="45.23062" lon="5.83538">
        <ele>224.61</ele>
        <time>2022-09-23T14:47:21Z</time>
      </trkpt>
      <trkpt lat="45.23043" lon="5.83544">
        <ele>224.61</ele>
        <time>2022-09-23T14:47:35Z</time>
      </trkpt>
      <trkpt lat="45.23022" lon="5.83554">
        <ele>224.61</ele>
        <time>2022-09-23T14:47:49Z</time>
      </trkpt>
      <trkpt lat="45.22995" lon="5.83566">
        <ele>224.61</ele>
        <time>2022-09-23T14:48:07Z</time>
      </trkpt>
      <trkpt lat="45.22979" lon="5.83574">
        <ele>224.61</ele>
        <time>2022-09-23T14:48:16Z</time>
      </trkpt>
      <trkpt lat="45.22973" lon="5.83579">
        <ele>224.61</ele>
        <time>2022-09-23T14:48:20Z</time>
      </trkpt>
      <trkpt lat="45.22956" lon="5.83591">
        <ele>224.61</ele>
        <time>2022-09-23T14:48:33Z</time>
      </trkpt>
      <trkpt lat="45.22945" lon="5.83601">
        <ele>224.61</ele>
        <time>2022-09-23T14:48:43Z</time>
      </trkpt>
      <trkpt lat="45.22936" lon="5.83613">
        <ele>224.61</ele>
        <time>2022-09-23T14:48:53Z</time>
      </trkpt>
      <trkpt lat="45.22934" lon="5.83615">
        <ele>224.61</ele>
        <time>2022-09-23T14:48:54Z</time>
      </trkpt>
      <trkpt lat="45.22933" lon="5.83616">
        <ele>224.61</ele>
        <time>2022-09-23T14:48:55Z</time>
      </trkpt>
      <trkpt lat="45.22924" lon="5.83621">
        <ele>225.57</ele>
        <time>2022-09-23T14:49:05Z</time>
      </trkpt>
      <trkpt lat="45.22923" lon="5.83621">
        <ele>225.57</ele>
        <time>2022-09-23T14:49:06Z</time>
      </trkpt>
      <trkpt lat="45.22911" lon="5.83618">
        <ele>227.01</ele>
        <time>2022-09-23T14:49:19Z</time>
      </trkpt>
      <trkpt lat="45.22908" lon="5.83622">
        <ele>227.01</ele>
        <time>2022-09-23T14:49:23Z</time>
      </trkpt>
      <trkpt lat="45.22907" lon="5.83623">
        <ele>227.49</ele>
        <time>2022-09-23T14:49:24Z</time>
      </trkpt>
      <trkpt lat="45.22906" lon="5.83624">
        <ele>227.49</ele>
        <time>2022-09-23T14:49:25Z</time>
      </trkpt>
      <trkpt lat="45.22905" lon="5.83626">
        <ele>227.49</ele>
        <time>2022-09-23T14:49:26Z</time>
      </trkpt>
      <trkpt lat="45.22892" lon="5.8364">
        <ele>227.01</ele>
        <time>2022-09-23T14:49:39Z</time>
      </trkpt>
      <trkpt lat="45.22879" lon="5.83654">
        <ele>227.01</ele>
        <time>2022-09-23T14:49:52Z</time>
      </trkpt>
      <trkpt lat="45.22873" lon="5.83663">
        <ele>227.01</ele>
        <time>2022-09-23T14:49:59Z</time>
      </trkpt>
      <trkpt lat="45.22871" lon="5.83665">
        <ele>227.01</ele>
        <time>2022-09-23T14:50:00Z</time>
      </trkpt>
      <trkpt lat="45.2287" lon="5.83666">
        <ele>227.01</ele>
        <time>2022-09-23T14:50:01Z</time>
      </trkpt>
      <trkpt lat="45.22857" lon="5.83681">
        <ele>227.01</ele>
        <time>2022-09-23T14:50:13Z</time>
      </trkpt>
      <trkpt lat="45.22848" lon="5.83692">
        <ele>227.01</ele>
        <time>2022-09-23T14:50:23Z</time>
      </trkpt>
      <trkpt lat="45.22847" lon="5.83694">
        <ele>227.01</ele>
        <time>2022-09-23T14:50:24Z</time>
      </trkpt>
      <trkpt lat="45.22831" lon="5.83708">
        <ele>227.01</ele>
        <time>2022-09-23T14:50:38Z</time>
      </trkpt>
      <trkpt lat="45.22824" lon="5.83715">
        <ele>227.49</ele>
        <time>2022-09-23T14:50:45Z</time>
      </trkpt>
      <trkpt lat="45.22823" lon="5.83717">
        <ele>227.49</ele>
        <time>2022-09-23T14:50:46Z</time>
      </trkpt>
      <trkpt lat="45.22821" lon="5.83718">
        <ele>227.49</ele>
        <time>2022-09-23T14:50:47Z</time>
      </trkpt>
      <trkpt lat="45.22816" lon="5.8372">
        <ele>227.49</ele>
        <time>2022-09-23T14:50:52Z</time>
      </trkpt>
      <trkpt lat="45.22802" lon="5.83713">
        <ele>227.01</ele>
        <time>2022-09-23T14:51:05Z</time>
      </trkpt>
      <trkpt lat="45.22789" lon="5.837">
        <ele>225.57</ele>
        <time>2022-09-23T14:51:18Z</time>
      </trkpt>
      <trkpt lat="45.22776" lon="5.83679">
        <ele>224.61</ele>
        <time>2022-09-23T14:51:32Z</time>
      </trkpt>
      <trkpt lat="45.22761" lon="5.83659">
        <ele>224.61</ele>
        <time>2022-09-23T14:51:47Z</time>
      </trkpt>
      <trkpt lat="45.22748" lon="5.83641">
        <ele>224.61</ele>
        <time>2022-09-23T14:52:01Z</time>
      </trkpt>
      <trkpt lat="45.22737" lon="5.83626">
        <ele>224.61</ele>
        <time>2022-09-23T14:52:12Z</time>
      </trkpt>
      <trkpt lat="45.22733" lon="5.83624">
        <ele>224.61</ele>
        <time>2022-09-23T14:52:16Z</time>
      </trkpt>
      <trkpt lat="45.22732" lon="5.83622">
        <ele>224.61</ele>
        <time>2022-09-23T14:52:17Z</time>
      </trkpt>
      <trkpt lat="45.22721" lon="5.83607">
        <ele>224.61</ele>
        <time>2022-09-23T14:52:27Z</time>
      </trkpt>
      <trkpt lat="45.2271" lon="5.83593">
        <ele>224.61</ele>
        <time>2022-09-23T14:52:39Z</time>
      </trkpt>
      <trkpt lat="45.22709" lon="5.83592">
        <ele>224.61</ele>
        <time>2022-09-23T14:52:40Z</time>
      </trkpt>
      <trkpt lat="45.22708" lon="5.8359">
        <ele>224.61</ele>
        <time>2022-09-23T14:52:41Z</time>
      </trkpt>
      <trkpt lat="45.22696" lon="5.83574">
        <ele>224.61</ele>
        <time>2022-09-23T14:52:53Z</time>
      </trkpt>
      <trkpt lat="45.22685" lon="5.8356">
        <ele>225.57</ele>
        <time>2022-09-23T14:53:04Z</time>
      </trkpt>
      <trkpt lat="45.22675" lon="5.83544">
        <ele>225.57</ele>
        <time>2022-09-23T14:53:15Z</time>
      </trkpt>
      <trkpt lat="45.22663" lon="5.83528">
        <ele>225.57</ele>
        <time>2022-09-23T14:53:27Z</time>
      </trkpt>
      <trkpt lat="45.22652" lon="5.83512">
        <ele>225.57</ele>
        <time>2022-09-23T14:53:39Z</time>
      </trkpt>
      <trkpt lat="45.22641" lon="5.83496">
        <ele>225.57</ele>
        <time>2022-09-23T14:53:50Z</time>
      </trkpt>
      <trkpt lat="45.22628" lon="5.83479">
        <ele>225.57</ele>
        <time>2022-09-23T14:54:03Z</time>
      </trkpt>
      <trkpt lat="45.22617" lon="5.83463">
        <ele>225.57</ele>
        <time>2022-09-23T14:54:15Z</time>
      </trkpt>
      <trkpt lat="45.22606" lon="5.83447">
        <ele>225.57</ele>
        <time>2022-09-23T14:54:26Z</time>
      </trkpt>
      <trkpt lat="45.22597" lon="5.83434">
        <ele>225.09</ele>
        <time>2022-09-23T14:54:37Z</time>
      </trkpt>
      <trkpt lat="45.22596" lon="5.83433">
        <ele>225.09</ele>
        <time>2022-09-23T14:54:38Z</time>
      </trkpt>
      <trkpt lat="45.22585" lon="5.83415">
        <ele>225.09</ele>
        <time>2022-09-23T14:54:51Z</time>
      </trkpt>
      <trkpt lat="45.22585" lon="5.83414">
        <ele>225.09</ele>
        <time>2022-09-23T14:54:52Z</time>
      </trkpt>
      <trkpt lat="45.22585" lon="5.83412">
        <ele>225.09</ele>
        <time>2022-09-23T14:54:53Z</time>
      </trkpt>
      <trkpt lat="45.22585" lon="5.8341">
        <ele>225.09</ele>
        <time>2022-09-23T14:54:54Z</time>
      </trkpt>
      <trkpt lat="45.22586" lon="5.83407">
        <ele>225.09</ele>
        <time>2022-09-23T14:54:55Z</time>
      </trkpt>
      <trkpt lat="45.22586" lon="5.83406">
        <ele>225.09</ele>
        <time>2022-09-23T14:54:56Z</time>
      </trkpt>
      <trkpt lat="45.22601" lon="5.83386">
        <ele>225.09</ele>
        <time>2022-09-23T14:55:12Z</time>
      </trkpt>
      <trkpt lat="45.22619" lon="5.83358">
        <ele>225.09</ele>
        <time>2022-09-23T14:55:31Z</time>
      </trkpt>
      <trkpt lat="45.22633" lon="5.83338">
        <ele>225.09</ele>
        <time>2022-09-23T14:55:47Z</time>
      </trkpt>
      <trkpt lat="45.22649" lon="5.83318">
        <ele>225.09</ele>
        <time>2022-09-23T14:56:03Z</time>
      </trkpt>
      <trkpt lat="45.22667" lon="5.83292">
        <ele>225.09</ele>
        <time>2022-09-23T14:56:22Z</time>
      </trkpt>
      <trkpt lat="45.22683" lon="5.83269">
        <ele>224.61</ele>
        <time>2022-09-23T14:56:40Z</time>
      </trkpt>
      <trkpt lat="45.22701" lon="5.83246">
        <ele>224.61</ele>
        <time>2022-09-23T14:56:59Z</time>
      </trkpt>
      <trkpt lat="45.22718" lon="5.83226">
        <ele>224.61</ele>
        <time>2022-09-23T14:57:16Z</time>
      </trkpt>
      <trkpt lat="45.22739" lon="5.83208">
        <ele>224.61</ele>
        <time>2022-09-23T14:57:35Z</time>
      </trkpt>
      <trkpt lat="45.22757" lon="5.83197">
        <ele>224.61</ele>
        <time>2022-09-23T14:57:51Z</time>
      </trkpt>
      <trkpt lat="45.22786" lon="5.83175">
        <ele>224.61</ele>
        <time>2022-09-23T14:58:14Z</time>
      </trkpt>
      <trkpt lat="45.22813" lon="5.8315">
        <ele>225.09</ele>
        <time>2022-09-23T14:58:35Z</time>
      </trkpt>
      <trkpt lat="45.22826" lon="5.83139">
        <ele>224.61</ele>
        <time>2022-09-23T14:58:47Z</time>
      </trkpt>
      <trkpt lat="45.22839" lon="5.83128">
        <ele>224.61</ele>
        <time>2022-09-23T14:58:58Z</time>
      </trkpt>
      <trkpt lat="45.22843" lon="5.83124">
        <ele>225.09</ele>
        <time>2022-09-23T14:59:03Z</time>
      </trkpt>
      <trkpt lat="45.22844" lon="5.83123">
        <ele>225.09</ele>
        <time>2022-09-23T14:59:04Z</time>
      </trkpt>
      <trkpt lat="45.22856" lon="5.83113">
        <ele>225.09</ele>
        <time>2022-09-23T14:59:14Z</time>
      </trkpt>
      <trkpt lat="45.22861" lon="5.83109">
        <ele>225.09</ele>
        <time>2022-09-23T14:59:23Z</time>
      </trkpt>
      <trkpt lat="45.22863" lon="5.83107">
        <ele>225.09</ele>
        <time>2022-09-23T14:59:24Z</time>
      </trkpt>
      <trkpt lat="45.22864" lon="5.83106">
        <ele>225.57</ele>
        <time>2022-09-23T14:59:25Z</time>
      </trkpt>
      <trkpt lat="45.22866" lon="5.83104">
        <ele>225.57</ele>
        <time>2022-09-23T14:59:26Z</time>
      </trkpt>
      <trkpt lat="45.22869" lon="5.83101">
        <ele>225.09</ele>
        <time>2022-09-23T14:59:30Z</time>
      </trkpt>
      <trkpt lat="45.2287" lon="5.831">
        <ele>225.09</ele>
        <time>2022-09-23T14:59:31Z</time>
      </trkpt>
      <trkpt lat="45.22872" lon="5.83099">
        <ele>225.09</ele>
        <time>2022-09-23T14:59:32Z</time>
      </trkpt>
      <trkpt lat="45.22874" lon="5.83098">
        <ele>225.09</ele>
        <time>2022-09-23T14:59:33Z</time>
      </trkpt>
      <trkpt lat="45.22878" lon="5.83093">
        <ele>226.05</ele>
        <time>2022-09-23T14:59:47Z</time>
      </trkpt>
      <trkpt lat="45.22878" lon="5.83094">
        <ele>225.57</ele>
        <time>2022-09-23T15:00:16Z</time>
      </trkpt>
      <trkpt lat="45.22879" lon="5.83093">
        <ele>226.53</ele>
        <time>2022-09-23T15:00:25Z</time>
      </trkpt>
      <trkpt lat="45.2288" lon="5.83092">
        <ele>226.53</ele>
        <time>2022-09-23T15:00:26Z</time>
      </trkpt>
      <trkpt lat="45.22892" lon="5.83084">
        <ele>226.53</ele>
        <time>2022-09-23T15:00:37Z</time>
      </trkpt>
      <trkpt lat="45.2291" lon="5.83069">
        <ele>227.49</ele>
        <time>2022-09-23T15:00:55Z</time>
      </trkpt>
      <trkpt lat="45.22925" lon="5.83056">
        <ele>228.45</ele>
        <time>2022-09-23T15:01:09Z</time>
      </trkpt>
      <trkpt lat="45.22936" lon="5.83046">
        <ele>229.89</ele>
        <time>2022-09-23T15:01:22Z</time>
      </trkpt>
      <trkpt lat="45.22943" lon="5.8304">
        <ele>230.37</ele>
        <time>2022-09-23T15:01:30Z</time>
      </trkpt>
      <trkpt lat="45.22944" lon="5.83038">
        <ele>230.37</ele>
        <time>2022-09-23T15:01:31Z</time>
      </trkpt>
      <trkpt lat="45.22945" lon="5.83037">
        <ele>230.37</ele>
        <time>2022-09-23T15:01:32Z</time>
      </trkpt>
      <trkpt lat="45.22962" lon="5.83018">
        <ele>231.81</ele>
        <time>2022-09-23T15:01:47Z</time>
      </trkpt>
      <trkpt lat="45.22972" lon="5.83003">
        <ele>233.26</ele>
        <time>2022-09-23T15:01:59Z</time>
      </trkpt>
      <trkpt lat="45.22985" lon="5.82986">
        <ele>234.22</ele>
        <time>2022-09-23T15:02:11Z</time>
      </trkpt>
      <trkpt lat="45.22996" lon="5.82968">
        <ele>235.18</ele>
        <time>2022-09-23T15:02:24Z</time>
      </trkpt>
      <trkpt lat="45.22997" lon="5.82967">
        <ele>235.18</ele>
        <time>2022-09-23T15:02:25Z</time>
      </trkpt>
      <trkpt lat="45.22998" lon="5.82965">
        <ele>235.18</ele>
        <time>2022-09-23T15:02:26Z</time>
      </trkpt>
      <trkpt lat="45.23008" lon="5.82949">
        <ele>236.14</ele>
        <time>2022-09-23T15:02:38Z</time>
      </trkpt>
      <trkpt lat="45.23019" lon="5.82931">
        <ele>237.1</ele>
        <time>2022-09-23T15:02:50Z</time>
      </trkpt>
      <trkpt lat="45.23029" lon="5.82914">
        <ele>238.06</ele>
        <time>2022-09-23T15:03:02Z</time>
      </trkpt>
      <trkpt lat="45.23037" lon="5.82899">
        <ele>238.54</ele>
        <time>2022-09-23T15:03:13Z</time>
      </trkpt>
      <trkpt lat="45.23049" lon="5.82882">
        <ele>239.51</ele>
        <time>2022-09-23T15:03:24Z</time>
      </trkpt>
      <trkpt lat="45.23058" lon="5.82865">
        <ele>239.99</ele>
        <time>2022-09-23T15:03:36Z</time>
      </trkpt>
      <trkpt lat="45.23066" lon="5.82846">
        <ele>240.95</ele>
        <time>2022-09-23T15:03:48Z</time>
      </trkpt>
      <trkpt lat="45.23073" lon="5.82826">
        <ele>241.43</ele>
        <time>2022-09-23T15:04:00Z</time>
      </trkpt>
      <trkpt lat="45.23079" lon="5.82806">
        <ele>242.39</ele>
        <time>2022-09-23T15:04:11Z</time>
      </trkpt>
      <trkpt lat="45.23081" lon="5.82791">
        <ele>242.87</ele>
        <time>2022-09-23T15:04:19Z</time>
      </trkpt>
      <trkpt lat="45.23084" lon="5.82775">
        <ele>243.35</ele>
        <time>2022-09-23T15:04:30Z</time>
      </trkpt>
      <trkpt lat="45.23087" lon="5.82753">
        <ele>243.83</ele>
        <time>2022-09-23T15:04:41Z</time>
      </trkpt>
      <trkpt lat="45.23086" lon="5.82732">
        <ele>244.31</ele>
        <time>2022-09-23T15:04:53Z</time>
      </trkpt>
      <trkpt lat="45.23085" lon="5.82724">
        <ele>244.31</ele>
        <time>2022-09-23T15:04:58Z</time>
      </trkpt>
      <trkpt lat="45.23085" lon="5.82722">
        <ele>244.31</ele>
        <time>2022-09-23T15:04:59Z</time>
      </trkpt>
      <trkpt lat="45.23085" lon="5.82719">
        <ele>244.31</ele>
        <time>2022-09-23T15:05:00Z</time>
      </trkpt>
      <trkpt lat="45.23086" lon="5.82717">
        <ele>244.31</ele>
        <time>2022-09-23T15:05:01Z</time>
      </trkpt>
      <trkpt lat="45.23088" lon="5.82712">
        <ele>244.31</ele>
        <time>2022-09-23T15:05:04Z</time>
      </trkpt>
      <trkpt lat="45.23092" lon="5.82692">
        <ele>245.27</ele>
        <time>2022-09-23T15:05:14Z</time>
      </trkpt>
      <trkpt lat="45.23092" lon="5.8269">
        <ele>245.27</ele>
        <time>2022-09-23T15:05:15Z</time>
      </trkpt>
      <trkpt lat="45.23103" lon="5.82676">
        <ele>245.27</ele>
        <time>2022-09-23T15:05:26Z</time>
      </trkpt>
      <trkpt lat="45.23106" lon="5.82672">
        <ele>245.27</ele>
        <time>2022-09-23T15:05:30Z</time>
      </trkpt>
      <trkpt lat="45.23107" lon="5.82671">
        <ele>245.27</ele>
        <time>2022-09-23T15:05:31Z</time>
      </trkpt>
      <trkpt lat="45.23108" lon="5.82669">
        <ele>245.27</ele>
        <time>2022-09-23T15:05:32Z</time>
      </trkpt>
      <trkpt lat="45.23109" lon="5.82668">
        <ele>245.27</ele>
        <time>2022-09-23T15:05:35Z</time>
      </trkpt>
      <trkpt lat="45.23111" lon="5.82663">
        <ele>245.27</ele>
        <time>2022-09-23T15:05:39Z</time>
      </trkpt>
      <trkpt lat="45.23112" lon="5.82661">
        <ele>245.27</ele>
        <time>2022-09-23T15:05:40Z</time>
      </trkpt>
      <trkpt lat="45.23121" lon="5.82647">
        <ele>246.23</ele>
        <time>2022-09-23T15:05:49Z</time>
      </trkpt>
      <trkpt lat="45.23131" lon="5.82634">
        <ele>246.72</ele>
        <time>2022-09-23T15:06:00Z</time>
      </trkpt>
      <trkpt lat="45.23141" lon="5.82623">
        <ele>247.68</ele>
        <time>2022-09-23T15:06:12Z</time>
      </trkpt>
      <trkpt lat="45.23152" lon="5.82612">
        <ele>249.12</ele>
        <time>2022-09-23T15:06:24Z</time>
      </trkpt>
      <trkpt lat="45.23164" lon="5.82602">
        <ele>250.08</ele>
        <time>2022-09-23T15:06:35Z</time>
      </trkpt>
      <trkpt lat="45.23175" lon="5.82593">
        <ele>250.56</ele>
        <time>2022-09-23T15:06:45Z</time>
      </trkpt>
      <trkpt lat="45.23187" lon="5.82589">
        <ele>251.52</ele>
        <time>2022-09-23T15:06:56Z</time>
      </trkpt>
      <trkpt lat="45.23196" lon="5.82589">
        <ele>252</ele>
        <time>2022-09-23T15:07:04Z</time>
      </trkpt>
      <trkpt lat="45.23197" lon="5.82589">
        <ele>252.48</ele>
        <time>2022-09-23T15:07:05Z</time>
      </trkpt>
      <trkpt lat="45.23212" lon="5.8259">
        <ele>253.44</ele>
        <time>2022-09-23T15:07:18Z</time>
      </trkpt>
      <trkpt lat="45.23214" lon="5.8259">
        <ele>253.44</ele>
        <time>2022-09-23T15:07:20Z</time>
      </trkpt>
      <trkpt lat="45.23216" lon="5.8259">
        <ele>253.93</ele>
        <time>2022-09-23T15:07:21Z</time>
      </trkpt>
      <trkpt lat="45.23217" lon="5.8259">
        <ele>253.93</ele>
        <time>2022-09-23T15:07:22Z</time>
      </trkpt>
      <trkpt lat="45.23229" lon="5.82588">
        <ele>254.41</ele>
        <time>2022-09-23T15:07:32Z</time>
      </trkpt>
      <trkpt lat="45.23231" lon="5.82587">
        <ele>254.41</ele>
        <time>2022-09-23T15:07:33Z</time>
      </trkpt>
      <trkpt lat="45.23246" lon="5.82577">
        <ele>255.37</ele>
        <time>2022-09-23T15:07:45Z</time>
      </trkpt>
      <trkpt lat="45.23253" lon="5.82569">
        <ele>255.85</ele>
        <time>2022-09-23T15:07:52Z</time>
      </trkpt>
      <trkpt lat="45.23254" lon="5.82567">
        <ele>255.85</ele>
        <time>2022-09-23T15:07:53Z</time>
      </trkpt>
      <trkpt lat="45.23266" lon="5.82551">
        <ele>256.81</ele>
        <time>2022-09-23T15:08:05Z</time>
      </trkpt>
      <trkpt lat="45.23275" lon="5.82537">
        <ele>257.29</ele>
        <time>2022-09-23T15:08:15Z</time>
      </trkpt>
      <trkpt lat="45.2328" lon="5.82524">
        <ele>258.25</ele>
        <time>2022-09-23T15:08:24Z</time>
      </trkpt>
      <trkpt lat="45.23281" lon="5.82522">
        <ele>258.25</ele>
        <time>2022-09-23T15:08:25Z</time>
      </trkpt>
      <trkpt lat="45.23282" lon="5.8252">
        <ele>258.25</ele>
        <time>2022-09-23T15:08:26Z</time>
      </trkpt>
      <trkpt lat="45.2329" lon="5.82503">
        <ele>259.21</ele>
        <time>2022-09-23T15:08:37Z</time>
      </trkpt>
      <trkpt lat="45.23299" lon="5.82487">
        <ele>259.21</ele>
        <time>2022-09-23T15:08:48Z</time>
      </trkpt>
      <trkpt lat="45.23307" lon="5.82473">
        <ele>260.17</ele>
        <time>2022-09-23T15:08:57Z</time>
      </trkpt>
      <trkpt lat="45.23315" lon="5.82457">
        <ele>260.65</ele>
        <time>2022-09-23T15:09:08Z</time>
      </trkpt>
      <trkpt lat="45.23322" lon="5.82442">
        <ele>261.14</ele>
        <time>2022-09-23T15:09:18Z</time>
      </trkpt>
      <trkpt lat="45.23332" lon="5.82429">
        <ele>262.1</ele>
        <time>2022-09-23T15:09:30Z</time>
      </trkpt>
      <trkpt lat="45.23333" lon="5.82428">
        <ele>262.58</ele>
        <time>2022-09-23T15:09:31Z</time>
      </trkpt>
      <trkpt lat="45.23334" lon="5.82428">
        <ele>262.58</ele>
        <time>2022-09-23T15:09:32Z</time>
      </trkpt>
      <trkpt lat="45.2334" lon="5.82421">
        <ele>263.06</ele>
        <time>2022-09-23T15:09:41Z</time>
      </trkpt>
      <trkpt lat="45.23344" lon="5.82414">
        <ele>263.06</ele>
        <time>2022-09-23T15:09:46Z</time>
      </trkpt>
      <trkpt lat="45.23345" lon="5.82411">
        <ele>263.54</ele>
        <time>2022-09-23T15:09:48Z</time>
      </trkpt>
      <trkpt lat="45.23357" lon="5.82396">
        <ele>263.54</ele>
        <time>2022-09-23T15:10:01Z</time>
      </trkpt>
      <trkpt lat="45.23354" lon="5.8237">
        <ele>263.54</ele>
        <time>2022-09-23T15:10:16Z</time>
      </trkpt>
      <trkpt lat="45.23355" lon="5.82361">
        <ele>263.54</ele>
        <time>2022-09-23T15:10:20Z</time>
      </trkpt>
      <trkpt lat="45.23355" lon="5.82353">
        <ele>263.54</ele>
        <time>2022-09-23T15:10:24Z</time>
      </trkpt>
      <trkpt lat="45.23354" lon="5.82333">
        <ele>262.58</ele>
        <time>2022-09-23T15:10:35Z</time>
      </trkpt>
      <trkpt lat="45.23352" lon="5.8231">
        <ele>262.1</ele>
        <time>2022-09-23T15:10:47Z</time>
      </trkpt>
      <trkpt lat="45.2335" lon="5.82304">
        <ele>261.62</ele>
        <time>2022-09-23T15:10:52Z</time>
      </trkpt>
      <trkpt lat="45.23349" lon="5.82302">
        <ele>261.62</ele>
        <time>2022-09-23T15:10:53Z</time>
      </trkpt>
      <trkpt lat="45.23348" lon="5.82282">
        <ele>261.62</ele>
        <time>2022-09-23T15:11:05Z</time>
      </trkpt>
      <trkpt lat="45.2335" lon="5.82279">
        <ele>261.62</ele>
        <time>2022-09-23T15:11:07Z</time>
      </trkpt>
      <trkpt lat="45.23352" lon="5.82278">
        <ele>261.62</ele>
        <time>2022-09-23T15:11:08Z</time>
      </trkpt>
      <trkpt lat="45.23353" lon="5.82277">
        <ele>261.62</ele>
        <time>2022-09-23T15:11:09Z</time>
      </trkpt>
      <trkpt lat="45.23357" lon="5.82274">
        <ele>263.06</ele>
        <time>2022-09-23T15:11:13Z</time>
      </trkpt>
      <trkpt lat="45.2336" lon="5.82273">
        <ele>263.54</ele>
        <time>2022-09-23T15:11:17Z</time>
      </trkpt>
      <trkpt lat="45.23362" lon="5.82273">
        <ele>263.06</ele>
        <time>2022-09-23T15:11:18Z</time>
      </trkpt>
      <trkpt lat="45.23377" lon="5.82274">
        <ele>264.98</ele>
        <time>2022-09-23T15:11:31Z</time>
      </trkpt>
      <trkpt lat="45.2338" lon="5.82273">
        <ele>264.98</ele>
        <time>2022-09-23T15:11:34Z</time>
      </trkpt>
      <trkpt lat="45.23387" lon="5.82269">
        <ele>265.46</ele>
        <time>2022-09-23T15:11:40Z</time>
      </trkpt>
      <trkpt lat="45.23388" lon="5.82268">
        <ele>265.46</ele>
        <time>2022-09-23T15:11:41Z</time>
      </trkpt>
      <trkpt lat="45.23389" lon="5.82267">
        <ele>265.46</ele>
        <time>2022-09-23T15:11:42Z</time>
      </trkpt>
      <trkpt lat="45.2339" lon="5.82266">
        <ele>265.46</ele>
        <time>2022-09-23T15:11:43Z</time>
      </trkpt>
      <trkpt lat="45.23393" lon="5.82249">
        <ele>265.94</ele>
        <time>2022-09-23T15:11:54Z</time>
      </trkpt>
      <trkpt lat="45.23397" lon="5.82228">
        <ele>265.94</ele>
        <time>2022-09-23T15:12:06Z</time>
      </trkpt>
      <trkpt lat="45.23402" lon="5.82201">
        <ele>265.94</ele>
        <time>2022-09-23T15:12:19Z</time>
      </trkpt>
      <trkpt lat="45.23408" lon="5.82184">
        <ele>265.94</ele>
        <time>2022-09-23T15:12:31Z</time>
      </trkpt>
      <trkpt lat="45.23415" lon="5.82163">
        <ele>265.94</ele>
        <time>2022-09-23T15:12:43Z</time>
      </trkpt>
      <trkpt lat="45.23421" lon="5.82142">
        <ele>265.94</ele>
        <time>2022-09-23T15:12:55Z</time>
      </trkpt>
      <trkpt lat="45.23428" lon="5.82124">
        <ele>265.94</ele>
        <time>2022-09-23T15:13:06Z</time>
      </trkpt>
      <trkpt lat="45.23435" lon="5.82112">
        <ele>265.94</ele>
        <time>2022-09-23T15:13:15Z</time>
      </trkpt>
      <trkpt lat="45.23436" lon="5.8211">
        <ele>265.94</ele>
        <time>2022-09-23T15:13:16Z</time>
      </trkpt>
      <trkpt lat="45.23443" lon="5.82092">
        <ele>265.94</ele>
        <time>2022-09-23T15:13:27Z</time>
      </trkpt>
      <trkpt lat="45.23444" lon="5.82091">
        <ele>265.94</ele>
        <time>2022-09-23T15:13:28Z</time>
      </trkpt>
      <trkpt lat="45.23445" lon="5.82089">
        <ele>265.94</ele>
        <time>2022-09-23T15:13:29Z</time>
      </trkpt>
      <trkpt lat="45.23446" lon="5.82087">
        <ele>265.94</ele>
        <time>2022-09-23T15:13:30Z</time>
      </trkpt>
      <trkpt lat="45.23446" lon="5.82085">
        <ele>265.94</ele>
        <time>2022-09-23T15:13:31Z</time>
      </trkpt>
      <trkpt lat="45.23447" lon="5.82064">
        <ele>265.46</ele>
        <time>2022-09-23T15:13:43Z</time>
      </trkpt>
      <trkpt lat="45.23445" lon="5.82041">
        <ele>265.46</ele>
        <time>2022-09-23T15:13:56Z</time>
      </trkpt>
      <trkpt lat="45.23445" lon="5.82039">
        <ele>265.46</ele>
        <time>2022-09-23T15:13:57Z</time>
      </trkpt>
      <trkpt lat="45.23439" lon="5.8202">
        <ele>265.46</ele>
        <time>2022-09-23T15:14:07Z</time>
      </trkpt>
      <trkpt lat="45.2344" lon="5.82018">
        <ele>265.46</ele>
        <time>2022-09-23T15:14:08Z</time>
      </trkpt>
      <trkpt lat="45.2344" lon="5.82016">
        <ele>264.02</ele>
        <time>2022-09-23T15:14:09Z</time>
      </trkpt>
      <trkpt lat="45.2344" lon="5.82014">
        <ele>264.02</ele>
        <time>2022-09-23T15:14:10Z</time>
      </trkpt>
      <trkpt lat="45.23445" lon="5.81995">
        <ele>265.46</ele>
        <time>2022-09-23T15:14:23Z</time>
      </trkpt>
      <trkpt lat="45.23444" lon="5.81977">
        <ele>265.46</ele>
        <time>2022-09-23T15:14:34Z</time>
      </trkpt>
      <trkpt lat="45.23443" lon="5.81962">
        <ele>265.94</ele>
        <time>2022-09-23T15:14:43Z</time>
      </trkpt>
      <trkpt lat="45.23447" lon="5.81957">
        <ele>265.94</ele>
        <time>2022-09-23T15:14:48Z</time>
      </trkpt>
      <trkpt lat="45.23456" lon="5.81948">
        <ele>266.42</ele>
        <time>2022-09-23T15:15:01Z</time>
      </trkpt>
      <trkpt lat="45.23461" lon="5.81947">
        <ele>267.38</ele>
        <time>2022-09-23T15:15:08Z</time>
      </trkpt>
      <trkpt lat="45.23462" lon="5.81947">
        <ele>268.35</ele>
        <time>2022-09-23T15:15:09Z</time>
      </trkpt>
      <trkpt lat="45.23468" lon="5.8195">
        <ele>269.31</ele>
        <time>2022-09-23T15:15:16Z</time>
      </trkpt>
      <trkpt lat="45.23469" lon="5.81952">
        <ele>269.31</ele>
        <time>2022-09-23T15:15:17Z</time>
      </trkpt>
      <trkpt lat="45.23473" lon="5.81963">
        <ele>269.31</ele>
        <time>2022-09-23T15:15:27Z</time>
      </trkpt>
      <trkpt lat="45.23473" lon="5.81965">
        <ele>269.31</ele>
        <time>2022-09-23T15:15:28Z</time>
      </trkpt>
      <trkpt lat="45.23474" lon="5.81967">
        <ele>269.31</ele>
        <time>2022-09-23T15:15:29Z</time>
      </trkpt>
      <trkpt lat="45.23474" lon="5.81969">
        <ele>269.31</ele>
        <time>2022-09-23T15:15:30Z</time>
      </trkpt>
      <trkpt lat="45.23474" lon="5.81971">
        <ele>269.31</ele>
        <time>2022-09-23T15:15:31Z</time>
      </trkpt>
      <trkpt lat="45.23481" lon="5.81994">
        <ele>269.31</ele>
        <time>2022-09-23T15:15:45Z</time>
      </trkpt>
      <trkpt lat="45.23482" lon="5.81995">
        <ele>269.31</ele>
        <time>2022-09-23T15:15:46Z</time>
      </trkpt>
      <trkpt lat="45.23488" lon="5.81997">
        <ele>270.75</ele>
        <time>2022-09-23T15:15:55Z</time>
      </trkpt>
      <trkpt lat="45.23491" lon="5.81995">
        <ele>271.23</ele>
        <time>2022-09-23T15:15:57Z</time>
      </trkpt>
      <trkpt lat="45.23499" lon="5.81989">
        <ele>272.67</ele>
        <time>2022-09-23T15:16:09Z</time>
      </trkpt>
      <trkpt lat="45.235" lon="5.81989">
        <ele>272.67</ele>
        <time>2022-09-23T15:16:10Z</time>
      </trkpt>
      <trkpt lat="45.23502" lon="5.81988">
        <ele>273.63</ele>
        <time>2022-09-23T15:16:11Z</time>
      </trkpt>
      <trkpt lat="45.23504" lon="5.81988">
        <ele>273.63</ele>
        <time>2022-09-23T15:16:14Z</time>
      </trkpt>
      <trkpt lat="45.23505" lon="5.81988">
        <ele>274.11</ele>
        <time>2022-09-23T15:16:15Z</time>
      </trkpt>
      <trkpt lat="45.23515" lon="5.81983">
        <ele>276.52</ele>
        <time>2022-09-23T15:16:27Z</time>
      </trkpt>
      <trkpt lat="45.23521" lon="5.81982">
        <ele>277.96</ele>
        <time>2022-09-23T15:16:34Z</time>
      </trkpt>
      <trkpt lat="45.23529" lon="5.81977">
        <ele>280.36</ele>
        <time>2022-09-23T15:16:47Z</time>
      </trkpt>
      <trkpt lat="45.23531" lon="5.81964">
        <ele>282.28</ele>
        <time>2022-09-23T15:17:00Z</time>
      </trkpt>
      <trkpt lat="45.23529" lon="5.81948">
        <ele>282.77</ele>
        <time>2022-09-23T15:17:12Z</time>
      </trkpt>
      <trkpt lat="45.23532" lon="5.81931">
        <ele>285.17</ele>
        <time>2022-09-23T15:17:28Z</time>
      </trkpt>
      <trkpt lat="45.2354" lon="5.8193">
        <ele>287.57</ele>
        <time>2022-09-23T15:17:43Z</time>
      </trkpt>
      <trkpt lat="45.23542" lon="5.81907">
        <ele>289.97</ele>
        <time>2022-09-23T15:18:01Z</time>
      </trkpt>
      <trkpt lat="45.23555" lon="5.81913">
        <ele>292.38</ele>
        <time>2022-09-23T15:18:19Z</time>
      </trkpt>
      <trkpt lat="45.23564" lon="5.81896">
        <ele>295.74</ele>
        <time>2022-09-23T15:18:38Z</time>
      </trkpt>
      <trkpt lat="45.23571" lon="5.81882">
        <ele>298.63</ele>
        <time>2022-09-23T15:18:54Z</time>
      </trkpt>
      <trkpt lat="45.23578" lon="5.81876">
        <ele>301.03</ele>
        <time>2022-09-23T15:19:07Z</time>
      </trkpt>
      <trkpt lat="45.23581" lon="5.81874">
        <ele>301.51</ele>
        <time>2022-09-23T15:19:11Z</time>
      </trkpt>
      <trkpt lat="45.2359" lon="5.81874">
        <ele>303.43</ele>
        <time>2022-09-23T15:19:22Z</time>
      </trkpt>
      <trkpt lat="45.236" lon="5.81878">
        <ele>304.39</ele>
        <time>2022-09-23T15:19:33Z</time>
      </trkpt>
      <trkpt lat="45.23601" lon="5.81878">
        <ele>304.88</ele>
        <time>2022-09-23T15:19:34Z</time>
      </trkpt>
      <trkpt lat="45.23602" lon="5.81878">
        <ele>304.88</ele>
        <time>2022-09-23T15:19:35Z</time>
      </trkpt>
      <trkpt lat="45.2361" lon="5.81875">
        <ele>305.84</ele>
        <time>2022-09-23T15:19:44Z</time>
      </trkpt>
      <trkpt lat="45.23611" lon="5.81867">
        <ele>306.32</ele>
        <time>2022-09-23T15:19:53Z</time>
      </trkpt>
      <trkpt lat="45.2361" lon="5.81843">
        <ele>307.28</ele>
        <time>2022-09-23T15:20:08Z</time>
      </trkpt>
      <trkpt lat="45.23604" lon="5.81816">
        <ele>308.24</ele>
        <time>2022-09-23T15:20:24Z</time>
      </trkpt>
      <trkpt lat="45.23598" lon="5.81792">
        <ele>308.72</ele>
        <time>2022-09-23T15:20:38Z</time>
      </trkpt>
      <trkpt lat="45.23588" lon="5.81768">
        <ele>309.2</ele>
        <time>2022-09-23T15:20:54Z</time>
      </trkpt>
      <trkpt lat="45.23582" lon="5.81757">
        <ele>310.16</ele>
        <time>2022-09-23T15:21:04Z</time>
      </trkpt>
      <trkpt lat="45.23573" lon="5.81775">
        <ele>308.72</ele>
        <time>2022-09-23T15:21:18Z</time>
      </trkpt>
      <trkpt lat="45.23574" lon="5.81783">
        <ele>308.24</ele>
        <time>2022-09-23T15:21:35Z</time>
      </trkpt>
    </trkseg>
  </trk>
</gpx>